<?xml version="1.0" encoding="utf-8"?>
<gpx xmlns:xsi="http://www.w3.org/2001/XMLSchema-instance" xmlns:xsd="http://www.w3.org/2001/XMLSchema" version="1.1" creator="Shapelink.com" xmlns="http://www.topografix.com/GPX/1/1" xmlns:gpxtpx="http://www.garmin.com/xmlschemas/TrackPointExtension/v1">
  <metadata>
    <name>Ejecutar 5.40 km, 2019-11-20</name>
    <desc></desc>
    <author><name>Peter Littke</name></author> 
    <time>2019-11-20T06:29:15Z</time>
  </metadata>
  <trk>
    <name>Ejecutar 5.40 km, 2019-11-20</name>
    <trkseg>
      <trkpt lat="59.29919" lon="18.081317">
        <ele>50</ele>
        <time>2019-11-20T06:29:15Z</time>
      </trkpt>
      <trkpt lat="59.299185" lon="18.081525">
        <ele>48</ele>
        <time>2019-11-20T06:29:20Z</time>
      </trkpt>
      <trkpt lat="59.299165" lon="18.081579">
        <ele>48</ele>
        <time>2019-11-20T06:29:21Z</time>
      </trkpt>
      <trkpt lat="59.29915" lon="18.081624">
        <ele>48</ele>
        <time>2019-11-20T06:29:22Z</time>
      </trkpt>
      <trkpt lat="59.29914" lon="18.081656">
        <ele>49</ele>
        <time>2019-11-20T06:29:23Z</time>
      </trkpt>
      <trkpt lat="59.299138" lon="18.081696">
        <ele>49</ele>
        <time>2019-11-20T06:29:24Z</time>
      </trkpt>
      <trkpt lat="59.299141" lon="18.081746">
        <ele>50</ele>
        <time>2019-11-20T06:29:25Z</time>
      </trkpt>
      <trkpt lat="59.299146" lon="18.081802">
        <ele>50</ele>
        <time>2019-11-20T06:29:26Z</time>
      </trkpt>
      <trkpt lat="59.299154" lon="18.081847">
        <ele>50</ele>
        <time>2019-11-20T06:29:27Z</time>
      </trkpt>
      <trkpt lat="59.299162" lon="18.081903">
        <ele>50</ele>
        <time>2019-11-20T06:29:28Z</time>
      </trkpt>
      <trkpt lat="59.299171" lon="18.081964">
        <ele>50</ele>
        <time>2019-11-20T06:29:29Z</time>
      </trkpt>
      <trkpt lat="59.299174" lon="18.082023">
        <ele>50</ele>
        <time>2019-11-20T06:29:30Z</time>
      </trkpt>
      <trkpt lat="59.299172" lon="18.082082">
        <ele>50</ele>
        <time>2019-11-20T06:29:31Z</time>
      </trkpt>
      <trkpt lat="59.299168" lon="18.082137">
        <ele>50</ele>
        <time>2019-11-20T06:29:32Z</time>
      </trkpt>
      <trkpt lat="59.299158" lon="18.082191">
        <ele>50</ele>
        <time>2019-11-20T06:29:33Z</time>
      </trkpt>
      <trkpt lat="59.299141" lon="18.082239">
        <ele>50</ele>
        <time>2019-11-20T06:29:34Z</time>
      </trkpt>
      <trkpt lat="59.299118" lon="18.082287">
        <ele>50</ele>
        <time>2019-11-20T06:29:35Z</time>
      </trkpt>
      <trkpt lat="59.299093" lon="18.082318">
        <ele>50</ele>
        <time>2019-11-20T06:29:36Z</time>
      </trkpt>
      <trkpt lat="59.29906" lon="18.082336">
        <ele>50</ele>
        <time>2019-11-20T06:29:37Z</time>
      </trkpt>
      <trkpt lat="59.299029" lon="18.082357">
        <ele>49</ele>
        <time>2019-11-20T06:29:38Z</time>
      </trkpt>
      <trkpt lat="59.298999" lon="18.082376">
        <ele>49</ele>
        <time>2019-11-20T06:29:39Z</time>
      </trkpt>
      <trkpt lat="59.298972" lon="18.082407">
        <ele>49</ele>
        <time>2019-11-20T06:29:40Z</time>
      </trkpt>
      <trkpt lat="59.298942" lon="18.082434">
        <ele>49</ele>
        <time>2019-11-20T06:29:41Z</time>
      </trkpt>
      <trkpt lat="59.298914" lon="18.08246">
        <ele>49</ele>
        <time>2019-11-20T06:29:42Z</time>
      </trkpt>
      <trkpt lat="59.298886" lon="18.082484">
        <ele>48</ele>
        <time>2019-11-20T06:29:43Z</time>
      </trkpt>
      <trkpt lat="59.298858" lon="18.082511">
        <ele>48</ele>
        <time>2019-11-20T06:29:44Z</time>
      </trkpt>
      <trkpt lat="59.298831" lon="18.082531">
        <ele>48</ele>
        <time>2019-11-20T06:29:45Z</time>
      </trkpt>
      <trkpt lat="59.298804" lon="18.082551">
        <ele>48</ele>
        <time>2019-11-20T06:29:46Z</time>
      </trkpt>
      <trkpt lat="59.298778" lon="18.082572">
        <ele>48</ele>
        <time>2019-11-20T06:29:47Z</time>
      </trkpt>
      <trkpt lat="59.298758" lon="18.082575">
        <ele>48</ele>
        <time>2019-11-20T06:29:48Z</time>
      </trkpt>
      <trkpt lat="59.298772" lon="18.082527">
        <ele>47</ele>
        <time>2019-11-20T06:29:51Z</time>
      </trkpt>
      <trkpt lat="59.298802" lon="18.082485">
        <ele>47</ele>
        <time>2019-11-20T06:29:54Z</time>
      </trkpt>
      <trkpt lat="59.298825" lon="18.082452">
        <ele>47</ele>
        <time>2019-11-20T06:29:54Z</time>
      </trkpt>
      <trkpt lat="59.298851" lon="18.082424">
        <ele>47</ele>
        <time>2019-11-20T06:29:55Z</time>
      </trkpt>
      <trkpt lat="59.298873" lon="18.082404">
        <ele>47</ele>
        <time>2019-11-20T06:29:56Z</time>
      </trkpt>
      <trkpt lat="59.298896" lon="18.082385">
        <ele>47</ele>
        <time>2019-11-20T06:29:57Z</time>
      </trkpt>
      <trkpt lat="59.298917" lon="18.082368">
        <ele>47</ele>
        <time>2019-11-20T06:29:58Z</time>
      </trkpt>
      <trkpt lat="59.298938" lon="18.082351">
        <ele>46</ele>
        <time>2019-11-20T06:29:59Z</time>
      </trkpt>
      <trkpt lat="59.298961" lon="18.082323">
        <ele>46</ele>
        <time>2019-11-20T06:30:00Z</time>
      </trkpt>
      <trkpt lat="59.298986" lon="18.082301">
        <ele>46</ele>
        <time>2019-11-20T06:30:01Z</time>
      </trkpt>
      <trkpt lat="59.299076" lon="18.082239">
        <ele>45</ele>
        <time>2019-11-20T06:30:05Z</time>
      </trkpt>
      <trkpt lat="59.299178" lon="18.082178">
        <ele>45</ele>
        <time>2019-11-20T06:30:09Z</time>
      </trkpt>
      <trkpt lat="59.299278" lon="18.082225">
        <ele>44</ele>
        <time>2019-11-20T06:30:11Z</time>
      </trkpt>
      <trkpt lat="59.299391" lon="18.082309">
        <ele>44</ele>
        <time>2019-11-20T06:30:13Z</time>
      </trkpt>
      <trkpt lat="59.299491" lon="18.082301">
        <ele>45</ele>
        <time>2019-11-20T06:30:19Z</time>
      </trkpt>
      <trkpt lat="59.299522" lon="18.082256">
        <ele>45</ele>
        <time>2019-11-20T06:30:21Z</time>
      </trkpt>
      <trkpt lat="59.299541" lon="18.082234">
        <ele>45</ele>
        <time>2019-11-20T06:30:22Z</time>
      </trkpt>
      <trkpt lat="59.299563" lon="18.082217">
        <ele>46</ele>
        <time>2019-11-20T06:30:23Z</time>
      </trkpt>
      <trkpt lat="59.299588" lon="18.082198">
        <ele>46</ele>
        <time>2019-11-20T06:30:24Z</time>
      </trkpt>
      <trkpt lat="59.299615" lon="18.08218">
        <ele>46</ele>
        <time>2019-11-20T06:30:25Z</time>
      </trkpt>
      <trkpt lat="59.299641" lon="18.082167">
        <ele>46</ele>
        <time>2019-11-20T06:30:26Z</time>
      </trkpt>
      <trkpt lat="59.299668" lon="18.082151">
        <ele>46</ele>
        <time>2019-11-20T06:30:27Z</time>
      </trkpt>
      <trkpt lat="59.299696" lon="18.082136">
        <ele>46</ele>
        <time>2019-11-20T06:30:28Z</time>
      </trkpt>
      <trkpt lat="59.299722" lon="18.082113">
        <ele>46</ele>
        <time>2019-11-20T06:30:29Z</time>
      </trkpt>
      <trkpt lat="59.299749" lon="18.082098">
        <ele>46</ele>
        <time>2019-11-20T06:30:30Z</time>
      </trkpt>
      <trkpt lat="59.299776" lon="18.082076">
        <ele>46</ele>
        <time>2019-11-20T06:30:31Z</time>
      </trkpt>
      <trkpt lat="59.299804" lon="18.082055">
        <ele>46</ele>
        <time>2019-11-20T06:30:32Z</time>
      </trkpt>
      <trkpt lat="59.299833" lon="18.082033">
        <ele>46</ele>
        <time>2019-11-20T06:30:33Z</time>
      </trkpt>
      <trkpt lat="59.299864" lon="18.082006">
        <ele>46</ele>
        <time>2019-11-20T06:30:34Z</time>
      </trkpt>
      <trkpt lat="59.299892" lon="18.081986">
        <ele>46</ele>
        <time>2019-11-20T06:30:35Z</time>
      </trkpt>
      <trkpt lat="59.299919" lon="18.081965">
        <ele>46</ele>
        <time>2019-11-20T06:30:36Z</time>
      </trkpt>
      <trkpt lat="59.299946" lon="18.081945">
        <ele>46</ele>
        <time>2019-11-20T06:30:37Z</time>
      </trkpt>
      <trkpt lat="59.299966" lon="18.081916">
        <ele>46</ele>
        <time>2019-11-20T06:30:38Z</time>
      </trkpt>
      <trkpt lat="59.299996" lon="18.081902">
        <ele>46</ele>
        <time>2019-11-20T06:30:39Z</time>
      </trkpt>
      <trkpt lat="59.30002" lon="18.081881">
        <ele>46</ele>
        <time>2019-11-20T06:30:40Z</time>
      </trkpt>
      <trkpt lat="59.300049" lon="18.081853">
        <ele>46</ele>
        <time>2019-11-20T06:30:41Z</time>
      </trkpt>
      <trkpt lat="59.300075" lon="18.081828">
        <ele>46</ele>
        <time>2019-11-20T06:30:42Z</time>
      </trkpt>
      <trkpt lat="59.300161" lon="18.08177">
        <ele>47</ele>
        <time>2019-11-20T06:30:45Z</time>
      </trkpt>
      <trkpt lat="59.300213" lon="18.081739">
        <ele>47</ele>
        <time>2019-11-20T06:30:47Z</time>
      </trkpt>
      <trkpt lat="59.300276" lon="18.081712">
        <ele>46</ele>
        <time>2019-11-20T06:30:49Z</time>
      </trkpt>
      <trkpt lat="59.300308" lon="18.081696">
        <ele>46</ele>
        <time>2019-11-20T06:30:50Z</time>
      </trkpt>
      <trkpt lat="59.300336" lon="18.081676">
        <ele>46</ele>
        <time>2019-11-20T06:30:51Z</time>
      </trkpt>
      <trkpt lat="59.300365" lon="18.081659">
        <ele>46</ele>
        <time>2019-11-20T06:30:52Z</time>
      </trkpt>
      <trkpt lat="59.300391" lon="18.081645">
        <ele>46</ele>
        <time>2019-11-20T06:30:53Z</time>
      </trkpt>
      <trkpt lat="59.30042" lon="18.081627">
        <ele>46</ele>
        <time>2019-11-20T06:30:54Z</time>
      </trkpt>
      <trkpt lat="59.30045" lon="18.081606">
        <ele>46</ele>
        <time>2019-11-20T06:30:55Z</time>
      </trkpt>
      <trkpt lat="59.300476" lon="18.081577">
        <ele>46</ele>
        <time>2019-11-20T06:30:56Z</time>
      </trkpt>
      <trkpt lat="59.300501" lon="18.08155">
        <ele>46</ele>
        <time>2019-11-20T06:30:57Z</time>
      </trkpt>
      <trkpt lat="59.300526" lon="18.081521">
        <ele>46</ele>
        <time>2019-11-20T06:30:58Z</time>
      </trkpt>
      <trkpt lat="59.30055" lon="18.081499">
        <ele>46</ele>
        <time>2019-11-20T06:30:59Z</time>
      </trkpt>
      <trkpt lat="59.300602" lon="18.081459">
        <ele>46</ele>
        <time>2019-11-20T06:31:01Z</time>
      </trkpt>
      <trkpt lat="59.300629" lon="18.081442">
        <ele>46</ele>
        <time>2019-11-20T06:31:02Z</time>
      </trkpt>
      <trkpt lat="59.300734" lon="18.081356">
        <ele>46</ele>
        <time>2019-11-20T06:31:06Z</time>
      </trkpt>
      <trkpt lat="59.300758" lon="18.081326">
        <ele>46</ele>
        <time>2019-11-20T06:31:07Z</time>
      </trkpt>
      <trkpt lat="59.300788" lon="18.081305">
        <ele>46</ele>
        <time>2019-11-20T06:31:08Z</time>
      </trkpt>
      <trkpt lat="59.300881" lon="18.081259">
        <ele>45</ele>
        <time>2019-11-20T06:31:11Z</time>
      </trkpt>
      <trkpt lat="59.300986" lon="18.08119">
        <ele>45</ele>
        <time>2019-11-20T06:31:15Z</time>
      </trkpt>
      <trkpt lat="59.301073" lon="18.081065">
        <ele>45</ele>
        <time>2019-11-20T06:31:19Z</time>
      </trkpt>
      <trkpt lat="59.301097" lon="18.081036">
        <ele>44</ele>
        <time>2019-11-20T06:31:20Z</time>
      </trkpt>
      <trkpt lat="59.301119" lon="18.081006">
        <ele>44</ele>
        <time>2019-11-20T06:31:21Z</time>
      </trkpt>
      <trkpt lat="59.301138" lon="18.080979">
        <ele>44</ele>
        <time>2019-11-20T06:31:22Z</time>
      </trkpt>
      <trkpt lat="59.301185" lon="18.080923">
        <ele>44</ele>
        <time>2019-11-20T06:31:24Z</time>
      </trkpt>
      <trkpt lat="59.301269" lon="18.080847">
        <ele>44</ele>
        <time>2019-11-20T06:31:27Z</time>
      </trkpt>
      <trkpt lat="59.301351" lon="18.080774">
        <ele>44</ele>
        <time>2019-11-20T06:31:30Z</time>
      </trkpt>
      <trkpt lat="59.301449" lon="18.080682">
        <ele>43</ele>
        <time>2019-11-20T06:31:34Z</time>
      </trkpt>
      <trkpt lat="59.301477" lon="18.08066">
        <ele>43</ele>
        <time>2019-11-20T06:31:35Z</time>
      </trkpt>
      <trkpt lat="59.301503" lon="18.080634">
        <ele>43</ele>
        <time>2019-11-20T06:31:36Z</time>
      </trkpt>
      <trkpt lat="59.301534" lon="18.080614">
        <ele>43</ele>
        <time>2019-11-20T06:31:37Z</time>
      </trkpt>
      <trkpt lat="59.301563" lon="18.080595">
        <ele>43</ele>
        <time>2019-11-20T06:31:38Z</time>
      </trkpt>
      <trkpt lat="59.301593" lon="18.080578">
        <ele>43</ele>
        <time>2019-11-20T06:31:39Z</time>
      </trkpt>
      <trkpt lat="59.301673" lon="18.080514">
        <ele>43</ele>
        <time>2019-11-20T06:31:42Z</time>
      </trkpt>
      <trkpt lat="59.301701" lon="18.080492">
        <ele>43</ele>
        <time>2019-11-20T06:31:43Z</time>
      </trkpt>
      <trkpt lat="59.301727" lon="18.080478">
        <ele>43</ele>
        <time>2019-11-20T06:31:44Z</time>
      </trkpt>
      <trkpt lat="59.301759" lon="18.080462">
        <ele>43</ele>
        <time>2019-11-20T06:31:45Z</time>
      </trkpt>
      <trkpt lat="59.301788" lon="18.080448">
        <ele>43</ele>
        <time>2019-11-20T06:31:46Z</time>
      </trkpt>
      <trkpt lat="59.301812" lon="18.080425">
        <ele>43</ele>
        <time>2019-11-20T06:31:48Z</time>
      </trkpt>
      <trkpt lat="59.301919" lon="18.080352">
        <ele>43</ele>
        <time>2019-11-20T06:31:51Z</time>
      </trkpt>
      <trkpt lat="59.302002" lon="18.080293">
        <ele>43</ele>
        <time>2019-11-20T06:31:54Z</time>
      </trkpt>
      <trkpt lat="59.302028" lon="18.080272">
        <ele>42</ele>
        <time>2019-11-20T06:31:55Z</time>
      </trkpt>
      <trkpt lat="59.302052" lon="18.08025">
        <ele>42</ele>
        <time>2019-11-20T06:31:56Z</time>
      </trkpt>
      <trkpt lat="59.302081" lon="18.080234">
        <ele>42</ele>
        <time>2019-11-20T06:31:57Z</time>
      </trkpt>
      <trkpt lat="59.302106" lon="18.080218">
        <ele>42</ele>
        <time>2019-11-20T06:31:58Z</time>
      </trkpt>
      <trkpt lat="59.302131" lon="18.0802">
        <ele>42</ele>
        <time>2019-11-20T06:31:59Z</time>
      </trkpt>
      <trkpt lat="59.302158" lon="18.080183">
        <ele>42</ele>
        <time>2019-11-20T06:32:00Z</time>
      </trkpt>
      <trkpt lat="59.302184" lon="18.080168">
        <ele>42</ele>
        <time>2019-11-20T06:32:01Z</time>
      </trkpt>
      <trkpt lat="59.302211" lon="18.080155">
        <ele>42</ele>
        <time>2019-11-20T06:32:02Z</time>
      </trkpt>
      <trkpt lat="59.302238" lon="18.080144">
        <ele>42</ele>
        <time>2019-11-20T06:32:03Z</time>
      </trkpt>
      <trkpt lat="59.302265" lon="18.08013">
        <ele>42</ele>
        <time>2019-11-20T06:32:04Z</time>
      </trkpt>
      <trkpt lat="59.302292" lon="18.080112">
        <ele>42</ele>
        <time>2019-11-20T06:32:05Z</time>
      </trkpt>
      <trkpt lat="59.302324" lon="18.080098">
        <ele>42</ele>
        <time>2019-11-20T06:32:06Z</time>
      </trkpt>
      <trkpt lat="59.30235" lon="18.080082">
        <ele>41</ele>
        <time>2019-11-20T06:32:07Z</time>
      </trkpt>
      <trkpt lat="59.302378" lon="18.080064">
        <ele>41</ele>
        <time>2019-11-20T06:32:08Z</time>
      </trkpt>
      <trkpt lat="59.302406" lon="18.080046">
        <ele>41</ele>
        <time>2019-11-20T06:32:09Z</time>
      </trkpt>
      <trkpt lat="59.302434" lon="18.080029">
        <ele>41</ele>
        <time>2019-11-20T06:32:10Z</time>
      </trkpt>
      <trkpt lat="59.30246" lon="18.080016">
        <ele>41</ele>
        <time>2019-11-20T06:32:11Z</time>
      </trkpt>
      <trkpt lat="59.302486" lon="18.079998">
        <ele>41</ele>
        <time>2019-11-20T06:32:12Z</time>
      </trkpt>
      <trkpt lat="59.302516" lon="18.079981">
        <ele>41</ele>
        <time>2019-11-20T06:32:14Z</time>
      </trkpt>
      <trkpt lat="59.302542" lon="18.079966">
        <ele>41</ele>
        <time>2019-11-20T06:32:14Z</time>
      </trkpt>
      <trkpt lat="59.30257" lon="18.079952">
        <ele>41</ele>
        <time>2019-11-20T06:32:15Z</time>
      </trkpt>
      <trkpt lat="59.302597" lon="18.079934">
        <ele>41</ele>
        <time>2019-11-20T06:32:16Z</time>
      </trkpt>
      <trkpt lat="59.302626" lon="18.079914">
        <ele>41</ele>
        <time>2019-11-20T06:32:17Z</time>
      </trkpt>
      <trkpt lat="59.302652" lon="18.079899">
        <ele>41</ele>
        <time>2019-11-20T06:32:18Z</time>
      </trkpt>
      <trkpt lat="59.302678" lon="18.079882">
        <ele>41</ele>
        <time>2019-11-20T06:32:19Z</time>
      </trkpt>
      <trkpt lat="59.302702" lon="18.079863">
        <ele>41</ele>
        <time>2019-11-20T06:32:20Z</time>
      </trkpt>
      <trkpt lat="59.302729" lon="18.079844">
        <ele>41</ele>
        <time>2019-11-20T06:32:21Z</time>
      </trkpt>
      <trkpt lat="59.302754" lon="18.079823">
        <ele>41</ele>
        <time>2019-11-20T06:32:22Z</time>
      </trkpt>
      <trkpt lat="59.302784" lon="18.079802">
        <ele>40</ele>
        <time>2019-11-20T06:32:23Z</time>
      </trkpt>
      <trkpt lat="59.302814" lon="18.079788">
        <ele>41</ele>
        <time>2019-11-20T06:32:24Z</time>
      </trkpt>
      <trkpt lat="59.302843" lon="18.07977">
        <ele>41</ele>
        <time>2019-11-20T06:32:26Z</time>
      </trkpt>
      <trkpt lat="59.302868" lon="18.079752">
        <ele>40</ele>
        <time>2019-11-20T06:32:26Z</time>
      </trkpt>
      <trkpt lat="59.302896" lon="18.079737">
        <ele>40</ele>
        <time>2019-11-20T06:32:27Z</time>
      </trkpt>
      <trkpt lat="59.302926" lon="18.079721">
        <ele>41</ele>
        <time>2019-11-20T06:32:28Z</time>
      </trkpt>
      <trkpt lat="59.302952" lon="18.079708">
        <ele>41</ele>
        <time>2019-11-20T06:32:29Z</time>
      </trkpt>
      <trkpt lat="59.302974" lon="18.079692">
        <ele>41</ele>
        <time>2019-11-20T06:32:30Z</time>
      </trkpt>
      <trkpt lat="59.303" lon="18.079676">
        <ele>41</ele>
        <time>2019-11-20T06:32:31Z</time>
      </trkpt>
      <trkpt lat="59.303028" lon="18.079661">
        <ele>41</ele>
        <time>2019-11-20T06:32:32Z</time>
      </trkpt>
      <trkpt lat="59.303058" lon="18.079646">
        <ele>41</ele>
        <time>2019-11-20T06:32:33Z</time>
      </trkpt>
      <trkpt lat="59.303088" lon="18.07963">
        <ele>41</ele>
        <time>2019-11-20T06:32:34Z</time>
      </trkpt>
      <trkpt lat="59.303116" lon="18.079613">
        <ele>41</ele>
        <time>2019-11-20T06:32:35Z</time>
      </trkpt>
      <trkpt lat="59.303142" lon="18.079596">
        <ele>41</ele>
        <time>2019-11-20T06:32:36Z</time>
      </trkpt>
      <trkpt lat="59.303169" lon="18.079579">
        <ele>41</ele>
        <time>2019-11-20T06:32:37Z</time>
      </trkpt>
      <trkpt lat="59.303197" lon="18.079562">
        <ele>41</ele>
        <time>2019-11-20T06:32:38Z</time>
      </trkpt>
      <trkpt lat="59.303224" lon="18.079543">
        <ele>41</ele>
        <time>2019-11-20T06:32:39Z</time>
      </trkpt>
      <trkpt lat="59.30325" lon="18.07953">
        <ele>41</ele>
        <time>2019-11-20T06:32:40Z</time>
      </trkpt>
      <trkpt lat="59.303279" lon="18.079513">
        <ele>41</ele>
        <time>2019-11-20T06:32:41Z</time>
      </trkpt>
      <trkpt lat="59.303306" lon="18.079494">
        <ele>41</ele>
        <time>2019-11-20T06:32:42Z</time>
      </trkpt>
      <trkpt lat="59.303334" lon="18.079474">
        <ele>41</ele>
        <time>2019-11-20T06:32:43Z</time>
      </trkpt>
      <trkpt lat="59.303359" lon="18.079454">
        <ele>41</ele>
        <time>2019-11-20T06:32:44Z</time>
      </trkpt>
      <trkpt lat="59.303389" lon="18.079433">
        <ele>41</ele>
        <time>2019-11-20T06:32:45Z</time>
      </trkpt>
      <trkpt lat="59.303418" lon="18.079411">
        <ele>41</ele>
        <time>2019-11-20T06:32:46Z</time>
      </trkpt>
      <trkpt lat="59.303445" lon="18.079387">
        <ele>41</ele>
        <time>2019-11-20T06:32:47Z</time>
      </trkpt>
      <trkpt lat="59.303476" lon="18.079365">
        <ele>41</ele>
        <time>2019-11-20T06:32:48Z</time>
      </trkpt>
      <trkpt lat="59.303504" lon="18.079347">
        <ele>41</ele>
        <time>2019-11-20T06:32:49Z</time>
      </trkpt>
      <trkpt lat="59.303532" lon="18.079334">
        <ele>41</ele>
        <time>2019-11-20T06:32:50Z</time>
      </trkpt>
      <trkpt lat="59.303562" lon="18.079321">
        <ele>41</ele>
        <time>2019-11-20T06:32:51Z</time>
      </trkpt>
      <trkpt lat="59.303591" lon="18.079306">
        <ele>41</ele>
        <time>2019-11-20T06:32:52Z</time>
      </trkpt>
      <trkpt lat="59.303621" lon="18.079292">
        <ele>40</ele>
        <time>2019-11-20T06:32:53Z</time>
      </trkpt>
      <trkpt lat="59.303648" lon="18.079277">
        <ele>40</ele>
        <time>2019-11-20T06:32:54Z</time>
      </trkpt>
      <trkpt lat="59.303675" lon="18.07926">
        <ele>40</ele>
        <time>2019-11-20T06:32:55Z</time>
      </trkpt>
      <trkpt lat="59.303702" lon="18.079244">
        <ele>40</ele>
        <time>2019-11-20T06:32:56Z</time>
      </trkpt>
      <trkpt lat="59.303732" lon="18.079226">
        <ele>40</ele>
        <time>2019-11-20T06:32:57Z</time>
      </trkpt>
      <trkpt lat="59.30376" lon="18.079208">
        <ele>40</ele>
        <time>2019-11-20T06:32:58Z</time>
      </trkpt>
      <trkpt lat="59.303788" lon="18.079191">
        <ele>40</ele>
        <time>2019-11-20T06:32:59Z</time>
      </trkpt>
      <trkpt lat="59.303816" lon="18.079173">
        <ele>40</ele>
        <time>2019-11-20T06:33:00Z</time>
      </trkpt>
      <trkpt lat="59.303844" lon="18.079156">
        <ele>40</ele>
        <time>2019-11-20T06:33:01Z</time>
      </trkpt>
      <trkpt lat="59.303873" lon="18.079139">
        <ele>40</ele>
        <time>2019-11-20T06:33:02Z</time>
      </trkpt>
      <trkpt lat="59.303901" lon="18.079119">
        <ele>40</ele>
        <time>2019-11-20T06:33:03Z</time>
      </trkpt>
      <trkpt lat="59.303929" lon="18.079099">
        <ele>40</ele>
        <time>2019-11-20T06:33:04Z</time>
      </trkpt>
      <trkpt lat="59.303956" lon="18.07908">
        <ele>40</ele>
        <time>2019-11-20T06:33:06Z</time>
      </trkpt>
      <trkpt lat="59.303985" lon="18.079062">
        <ele>40</ele>
        <time>2019-11-20T06:33:06Z</time>
      </trkpt>
      <trkpt lat="59.304011" lon="18.079045">
        <ele>40</ele>
        <time>2019-11-20T06:33:07Z</time>
      </trkpt>
      <trkpt lat="59.304037" lon="18.079028">
        <ele>40</ele>
        <time>2019-11-20T06:33:08Z</time>
      </trkpt>
      <trkpt lat="59.304064" lon="18.079013">
        <ele>40</ele>
        <time>2019-11-20T06:33:09Z</time>
      </trkpt>
      <trkpt lat="59.304089" lon="18.078995">
        <ele>40</ele>
        <time>2019-11-20T06:33:10Z</time>
      </trkpt>
      <trkpt lat="59.304116" lon="18.078976">
        <ele>40</ele>
        <time>2019-11-20T06:33:11Z</time>
      </trkpt>
      <trkpt lat="59.304143" lon="18.078959">
        <ele>40</ele>
        <time>2019-11-20T06:33:12Z</time>
      </trkpt>
      <trkpt lat="59.30417" lon="18.078943">
        <ele>40</ele>
        <time>2019-11-20T06:33:13Z</time>
      </trkpt>
      <trkpt lat="59.304199" lon="18.078929">
        <ele>40</ele>
        <time>2019-11-20T06:33:14Z</time>
      </trkpt>
      <trkpt lat="59.304228" lon="18.078914">
        <ele>40</ele>
        <time>2019-11-20T06:33:15Z</time>
      </trkpt>
      <trkpt lat="59.304257" lon="18.078898">
        <ele>39</ele>
        <time>2019-11-20T06:33:16Z</time>
      </trkpt>
      <trkpt lat="59.304285" lon="18.078878">
        <ele>39</ele>
        <time>2019-11-20T06:33:17Z</time>
      </trkpt>
      <trkpt lat="59.304314" lon="18.078858">
        <ele>39</ele>
        <time>2019-11-20T06:33:18Z</time>
      </trkpt>
      <trkpt lat="59.304341" lon="18.07884">
        <ele>39</ele>
        <time>2019-11-20T06:33:19Z</time>
      </trkpt>
      <trkpt lat="59.304368" lon="18.078821">
        <ele>39</ele>
        <time>2019-11-20T06:33:20Z</time>
      </trkpt>
      <trkpt lat="59.304395" lon="18.078804">
        <ele>39</ele>
        <time>2019-11-20T06:33:21Z</time>
      </trkpt>
      <trkpt lat="59.304421" lon="18.078788">
        <ele>39</ele>
        <time>2019-11-20T06:33:22Z</time>
      </trkpt>
      <trkpt lat="59.304448" lon="18.078771">
        <ele>39</ele>
        <time>2019-11-20T06:33:23Z</time>
      </trkpt>
      <trkpt lat="59.304474" lon="18.078754">
        <ele>39</ele>
        <time>2019-11-20T06:33:24Z</time>
      </trkpt>
      <trkpt lat="59.304503" lon="18.078739">
        <ele>38</ele>
        <time>2019-11-20T06:33:25Z</time>
      </trkpt>
      <trkpt lat="59.30453" lon="18.078721">
        <ele>38</ele>
        <time>2019-11-20T06:33:26Z</time>
      </trkpt>
      <trkpt lat="59.304558" lon="18.078702">
        <ele>38</ele>
        <time>2019-11-20T06:33:27Z</time>
      </trkpt>
      <trkpt lat="59.304586" lon="18.078682">
        <ele>38</ele>
        <time>2019-11-20T06:33:28Z</time>
      </trkpt>
      <trkpt lat="59.304615" lon="18.078664">
        <ele>38</ele>
        <time>2019-11-20T06:33:29Z</time>
      </trkpt>
      <trkpt lat="59.304645" lon="18.078647">
        <ele>37</ele>
        <time>2019-11-20T06:33:30Z</time>
      </trkpt>
      <trkpt lat="59.304674" lon="18.078629">
        <ele>37</ele>
        <time>2019-11-20T06:33:31Z</time>
      </trkpt>
      <trkpt lat="59.304702" lon="18.078612">
        <ele>37</ele>
        <time>2019-11-20T06:33:32Z</time>
      </trkpt>
      <trkpt lat="59.304729" lon="18.078594">
        <ele>36</ele>
        <time>2019-11-20T06:33:33Z</time>
      </trkpt>
      <trkpt lat="59.304758" lon="18.078576">
        <ele>36</ele>
        <time>2019-11-20T06:33:34Z</time>
      </trkpt>
      <trkpt lat="59.304788" lon="18.078556">
        <ele>36</ele>
        <time>2019-11-20T06:33:35Z</time>
      </trkpt>
      <trkpt lat="59.304818" lon="18.07854">
        <ele>36</ele>
        <time>2019-11-20T06:33:36Z</time>
      </trkpt>
      <trkpt lat="59.304847" lon="18.078523">
        <ele>36</ele>
        <time>2019-11-20T06:33:37Z</time>
      </trkpt>
      <trkpt lat="59.304875" lon="18.078506">
        <ele>35</ele>
        <time>2019-11-20T06:33:38Z</time>
      </trkpt>
      <trkpt lat="59.304905" lon="18.078488">
        <ele>35</ele>
        <time>2019-11-20T06:33:39Z</time>
      </trkpt>
      <trkpt lat="59.304933" lon="18.078471">
        <ele>35</ele>
        <time>2019-11-20T06:33:40Z</time>
      </trkpt>
      <trkpt lat="59.304963" lon="18.078455">
        <ele>35</ele>
        <time>2019-11-20T06:33:41Z</time>
      </trkpt>
      <trkpt lat="59.30499" lon="18.078439">
        <ele>35</ele>
        <time>2019-11-20T06:33:42Z</time>
      </trkpt>
      <trkpt lat="59.305018" lon="18.07842">
        <ele>35</ele>
        <time>2019-11-20T06:33:43Z</time>
      </trkpt>
      <trkpt lat="59.305045" lon="18.078402">
        <ele>35</ele>
        <time>2019-11-20T06:33:44Z</time>
      </trkpt>
      <trkpt lat="59.305071" lon="18.07838">
        <ele>34</ele>
        <time>2019-11-20T06:33:45Z</time>
      </trkpt>
      <trkpt lat="59.305097" lon="18.078361">
        <ele>34</ele>
        <time>2019-11-20T06:33:46Z</time>
      </trkpt>
      <trkpt lat="59.305125" lon="18.07834">
        <ele>34</ele>
        <time>2019-11-20T06:33:47Z</time>
      </trkpt>
      <trkpt lat="59.305152" lon="18.07832">
        <ele>34</ele>
        <time>2019-11-20T06:33:48Z</time>
      </trkpt>
      <trkpt lat="59.305179" lon="18.078303">
        <ele>34</ele>
        <time>2019-11-20T06:33:49Z</time>
      </trkpt>
      <trkpt lat="59.305206" lon="18.078289">
        <ele>34</ele>
        <time>2019-11-20T06:33:50Z</time>
      </trkpt>
      <trkpt lat="59.305234" lon="18.078272">
        <ele>34</ele>
        <time>2019-11-20T06:33:51Z</time>
      </trkpt>
      <trkpt lat="59.305262" lon="18.078256">
        <ele>34</ele>
        <time>2019-11-20T06:33:52Z</time>
      </trkpt>
      <trkpt lat="59.305289" lon="18.078238">
        <ele>34</ele>
        <time>2019-11-20T06:33:53Z</time>
      </trkpt>
      <trkpt lat="59.305317" lon="18.07822">
        <ele>34</ele>
        <time>2019-11-20T06:33:54Z</time>
      </trkpt>
      <trkpt lat="59.305345" lon="18.078201">
        <ele>33</ele>
        <time>2019-11-20T06:33:55Z</time>
      </trkpt>
      <trkpt lat="59.305373" lon="18.078183">
        <ele>33</ele>
        <time>2019-11-20T06:33:56Z</time>
      </trkpt>
      <trkpt lat="59.3054" lon="18.078166">
        <ele>33</ele>
        <time>2019-11-20T06:33:57Z</time>
      </trkpt>
      <trkpt lat="59.305428" lon="18.078148">
        <ele>33</ele>
        <time>2019-11-20T06:33:58Z</time>
      </trkpt>
      <trkpt lat="59.305457" lon="18.078131">
        <ele>33</ele>
        <time>2019-11-20T06:33:59Z</time>
      </trkpt>
      <trkpt lat="59.305484" lon="18.078111">
        <ele>33</ele>
        <time>2019-11-20T06:34:00Z</time>
      </trkpt>
      <trkpt lat="59.305512" lon="18.078091">
        <ele>33</ele>
        <time>2019-11-20T06:34:01Z</time>
      </trkpt>
      <trkpt lat="59.305539" lon="18.078072">
        <ele>33</ele>
        <time>2019-11-20T06:34:02Z</time>
      </trkpt>
      <trkpt lat="59.305567" lon="18.078053">
        <ele>33</ele>
        <time>2019-11-20T06:34:03Z</time>
      </trkpt>
      <trkpt lat="59.305595" lon="18.078036">
        <ele>32</ele>
        <time>2019-11-20T06:34:04Z</time>
      </trkpt>
      <trkpt lat="59.305625" lon="18.078021">
        <ele>32</ele>
        <time>2019-11-20T06:34:05Z</time>
      </trkpt>
      <trkpt lat="59.305655" lon="18.078005">
        <ele>32</ele>
        <time>2019-11-20T06:34:06Z</time>
      </trkpt>
      <trkpt lat="59.305684" lon="18.077987">
        <ele>32</ele>
        <time>2019-11-20T06:34:07Z</time>
      </trkpt>
      <trkpt lat="59.305712" lon="18.077971">
        <ele>32</ele>
        <time>2019-11-20T06:34:08Z</time>
      </trkpt>
      <trkpt lat="59.305741" lon="18.077953">
        <ele>32</ele>
        <time>2019-11-20T06:34:09Z</time>
      </trkpt>
      <trkpt lat="59.30577" lon="18.077935">
        <ele>32</ele>
        <time>2019-11-20T06:34:10Z</time>
      </trkpt>
      <trkpt lat="59.305799" lon="18.077919">
        <ele>32</ele>
        <time>2019-11-20T06:34:11Z</time>
      </trkpt>
      <trkpt lat="59.305829" lon="18.0779">
        <ele>31</ele>
        <time>2019-11-20T06:34:12Z</time>
      </trkpt>
      <trkpt lat="59.305858" lon="18.077886">
        <ele>31</ele>
        <time>2019-11-20T06:34:13Z</time>
      </trkpt>
      <trkpt lat="59.305887" lon="18.077871">
        <ele>31</ele>
        <time>2019-11-20T06:34:14Z</time>
      </trkpt>
      <trkpt lat="59.305916" lon="18.077853">
        <ele>31</ele>
        <time>2019-11-20T06:34:15Z</time>
      </trkpt>
      <trkpt lat="59.305945" lon="18.077834">
        <ele>31</ele>
        <time>2019-11-20T06:34:16Z</time>
      </trkpt>
      <trkpt lat="59.305973" lon="18.077815">
        <ele>31</ele>
        <time>2019-11-20T06:34:17Z</time>
      </trkpt>
      <trkpt lat="59.306" lon="18.077796">
        <ele>31</ele>
        <time>2019-11-20T06:34:18Z</time>
      </trkpt>
      <trkpt lat="59.306027" lon="18.07778">
        <ele>31</ele>
        <time>2019-11-20T06:34:19Z</time>
      </trkpt>
      <trkpt lat="59.306055" lon="18.077759">
        <ele>31</ele>
        <time>2019-11-20T06:34:20Z</time>
      </trkpt>
      <trkpt lat="59.306084" lon="18.077739">
        <ele>31</ele>
        <time>2019-11-20T06:34:21Z</time>
      </trkpt>
      <trkpt lat="59.306114" lon="18.07772">
        <ele>31</ele>
        <time>2019-11-20T06:34:22Z</time>
      </trkpt>
      <trkpt lat="59.306143" lon="18.077701">
        <ele>31</ele>
        <time>2019-11-20T06:34:23Z</time>
      </trkpt>
      <trkpt lat="59.30617" lon="18.077683">
        <ele>31</ele>
        <time>2019-11-20T06:34:24Z</time>
      </trkpt>
      <trkpt lat="59.306197" lon="18.077663">
        <ele>30</ele>
        <time>2019-11-20T06:34:25Z</time>
      </trkpt>
      <trkpt lat="59.306225" lon="18.077646">
        <ele>30</ele>
        <time>2019-11-20T06:34:26Z</time>
      </trkpt>
      <trkpt lat="59.306252" lon="18.077625">
        <ele>30</ele>
        <time>2019-11-20T06:34:27Z</time>
      </trkpt>
      <trkpt lat="59.306278" lon="18.077602">
        <ele>30</ele>
        <time>2019-11-20T06:34:28Z</time>
      </trkpt>
      <trkpt lat="59.306306" lon="18.077579">
        <ele>30</ele>
        <time>2019-11-20T06:34:29Z</time>
      </trkpt>
      <trkpt lat="59.306334" lon="18.077556">
        <ele>31</ele>
        <time>2019-11-20T06:34:30Z</time>
      </trkpt>
      <trkpt lat="59.306362" lon="18.077536">
        <ele>30</ele>
        <time>2019-11-20T06:34:31Z</time>
      </trkpt>
      <trkpt lat="59.30639" lon="18.077516">
        <ele>30</ele>
        <time>2019-11-20T06:34:32Z</time>
      </trkpt>
      <trkpt lat="59.306416" lon="18.077494">
        <ele>31</ele>
        <time>2019-11-20T06:34:33Z</time>
      </trkpt>
      <trkpt lat="59.306445" lon="18.07747">
        <ele>31</ele>
        <time>2019-11-20T06:34:34Z</time>
      </trkpt>
      <trkpt lat="59.306473" lon="18.077447">
        <ele>31</ele>
        <time>2019-11-20T06:34:35Z</time>
      </trkpt>
      <trkpt lat="59.306501" lon="18.077426">
        <ele>31</ele>
        <time>2019-11-20T06:34:36Z</time>
      </trkpt>
      <trkpt lat="59.306529" lon="18.077399">
        <ele>31</ele>
        <time>2019-11-20T06:34:37Z</time>
      </trkpt>
      <trkpt lat="59.306558" lon="18.077382">
        <ele>30</ele>
        <time>2019-11-20T06:34:39Z</time>
      </trkpt>
      <trkpt lat="59.306589" lon="18.077366">
        <ele>30</ele>
        <time>2019-11-20T06:34:39Z</time>
      </trkpt>
      <trkpt lat="59.30662" lon="18.077349">
        <ele>30</ele>
        <time>2019-11-20T06:34:40Z</time>
      </trkpt>
      <trkpt lat="59.306648" lon="18.077327">
        <ele>30</ele>
        <time>2019-11-20T06:34:41Z</time>
      </trkpt>
      <trkpt lat="59.306668" lon="18.077239">
        <ele>30</ele>
        <time>2019-11-20T06:34:42Z</time>
      </trkpt>
      <trkpt lat="59.306699" lon="18.077226">
        <ele>30</ele>
        <time>2019-11-20T06:34:43Z</time>
      </trkpt>
      <trkpt lat="59.306721" lon="18.077147">
        <ele>30</ele>
        <time>2019-11-20T06:34:44Z</time>
      </trkpt>
      <trkpt lat="59.306753" lon="18.077136">
        <ele>31</ele>
        <time>2019-11-20T06:34:45Z</time>
      </trkpt>
      <trkpt lat="59.306788" lon="18.077133">
        <ele>31</ele>
        <time>2019-11-20T06:34:46Z</time>
      </trkpt>
      <trkpt lat="59.306827" lon="18.077133">
        <ele>31</ele>
        <time>2019-11-20T06:34:47Z</time>
      </trkpt>
      <trkpt lat="59.306865" lon="18.07713">
        <ele>32</ele>
        <time>2019-11-20T06:34:48Z</time>
      </trkpt>
      <trkpt lat="59.306895" lon="18.077114">
        <ele>32</ele>
        <time>2019-11-20T06:34:49Z</time>
      </trkpt>
      <trkpt lat="59.306925" lon="18.077101">
        <ele>32</ele>
        <time>2019-11-20T06:34:50Z</time>
      </trkpt>
      <trkpt lat="59.306956" lon="18.077093">
        <ele>32</ele>
        <time>2019-11-20T06:34:51Z</time>
      </trkpt>
      <trkpt lat="59.306985" lon="18.07708">
        <ele>32</ele>
        <time>2019-11-20T06:34:52Z</time>
      </trkpt>
      <trkpt lat="59.307013" lon="18.077072">
        <ele>31</ele>
        <time>2019-11-20T06:34:53Z</time>
      </trkpt>
      <trkpt lat="59.307041" lon="18.077061">
        <ele>31</ele>
        <time>2019-11-20T06:34:54Z</time>
      </trkpt>
      <trkpt lat="59.307068" lon="18.077048">
        <ele>31</ele>
        <time>2019-11-20T06:34:55Z</time>
      </trkpt>
      <trkpt lat="59.307097" lon="18.077036">
        <ele>31</ele>
        <time>2019-11-20T06:34:56Z</time>
      </trkpt>
      <trkpt lat="59.307128" lon="18.077025">
        <ele>31</ele>
        <time>2019-11-20T06:34:57Z</time>
      </trkpt>
      <trkpt lat="59.307157" lon="18.077013">
        <ele>31</ele>
        <time>2019-11-20T06:34:58Z</time>
      </trkpt>
      <trkpt lat="59.307187" lon="18.077005">
        <ele>31</ele>
        <time>2019-11-20T06:34:59Z</time>
      </trkpt>
      <trkpt lat="59.307215" lon="18.077">
        <ele>31</ele>
        <time>2019-11-20T06:35:00Z</time>
      </trkpt>
      <trkpt lat="59.307243" lon="18.076996">
        <ele>31</ele>
        <time>2019-11-20T06:35:01Z</time>
      </trkpt>
      <trkpt lat="59.307273" lon="18.076994">
        <ele>31</ele>
        <time>2019-11-20T06:35:02Z</time>
      </trkpt>
      <trkpt lat="59.307302" lon="18.076994">
        <ele>31</ele>
        <time>2019-11-20T06:35:03Z</time>
      </trkpt>
      <trkpt lat="59.30733" lon="18.076986">
        <ele>31</ele>
        <time>2019-11-20T06:35:04Z</time>
      </trkpt>
      <trkpt lat="59.307359" lon="18.076975">
        <ele>31</ele>
        <time>2019-11-20T06:35:05Z</time>
      </trkpt>
      <trkpt lat="59.307389" lon="18.076963">
        <ele>31</ele>
        <time>2019-11-20T06:35:06Z</time>
      </trkpt>
      <trkpt lat="59.307418" lon="18.076952">
        <ele>31</ele>
        <time>2019-11-20T06:35:07Z</time>
      </trkpt>
      <trkpt lat="59.307447" lon="18.076938">
        <ele>31</ele>
        <time>2019-11-20T06:35:08Z</time>
      </trkpt>
      <trkpt lat="59.307477" lon="18.076928">
        <ele>31</ele>
        <time>2019-11-20T06:35:09Z</time>
      </trkpt>
      <trkpt lat="59.307503" lon="18.076914">
        <ele>30</ele>
        <time>2019-11-20T06:35:10Z</time>
      </trkpt>
      <trkpt lat="59.307528" lon="18.0769">
        <ele>30</ele>
        <time>2019-11-20T06:35:11Z</time>
      </trkpt>
      <trkpt lat="59.307554" lon="18.076884">
        <ele>30</ele>
        <time>2019-11-20T06:35:12Z</time>
      </trkpt>
      <trkpt lat="59.30758" lon="18.07687">
        <ele>30</ele>
        <time>2019-11-20T06:35:13Z</time>
      </trkpt>
      <trkpt lat="59.307607" lon="18.07687">
        <ele>30</ele>
        <time>2019-11-20T06:35:14Z</time>
      </trkpt>
      <trkpt lat="59.307634" lon="18.076872">
        <ele>30</ele>
        <time>2019-11-20T06:35:15Z</time>
      </trkpt>
      <trkpt lat="59.307657" lon="18.07687">
        <ele>30</ele>
        <time>2019-11-20T06:35:17Z</time>
      </trkpt>
      <trkpt lat="59.30768" lon="18.076872">
        <ele>30</ele>
        <time>2019-11-20T06:35:17Z</time>
      </trkpt>
      <trkpt lat="59.307699" lon="18.076886">
        <ele>30</ele>
        <time>2019-11-20T06:35:18Z</time>
      </trkpt>
      <trkpt lat="59.307717" lon="18.076894">
        <ele>30</ele>
        <time>2019-11-20T06:35:20Z</time>
      </trkpt>
      <trkpt lat="59.307744" lon="18.076886">
        <ele>30</ele>
        <time>2019-11-20T06:35:22Z</time>
      </trkpt>
      <trkpt lat="59.307774" lon="18.076882">
        <ele>30</ele>
        <time>2019-11-20T06:35:24Z</time>
      </trkpt>
      <trkpt lat="59.3078" lon="18.076882">
        <ele>30</ele>
        <time>2019-11-20T06:35:26Z</time>
      </trkpt>
      <trkpt lat="59.307819" lon="18.076868">
        <ele>30</ele>
        <time>2019-11-20T06:35:33Z</time>
      </trkpt>
      <trkpt lat="59.307838" lon="18.076896">
        <ele>29</ele>
        <time>2019-11-20T06:35:48Z</time>
      </trkpt>
      <trkpt lat="59.307874" lon="18.076904">
        <ele>30</ele>
        <time>2019-11-20T06:35:50Z</time>
      </trkpt>
      <trkpt lat="59.307894" lon="18.076897">
        <ele>29</ele>
        <time>2019-11-20T06:35:51Z</time>
      </trkpt>
      <trkpt lat="59.307912" lon="18.076886">
        <ele>30</ele>
        <time>2019-11-20T06:35:52Z</time>
      </trkpt>
      <trkpt lat="59.307932" lon="18.076876">
        <ele>30</ele>
        <time>2019-11-20T06:35:53Z</time>
      </trkpt>
      <trkpt lat="59.307947" lon="18.076858">
        <ele>30</ele>
        <time>2019-11-20T06:35:54Z</time>
      </trkpt>
      <trkpt lat="59.307967" lon="18.076842">
        <ele>30</ele>
        <time>2019-11-20T06:35:55Z</time>
      </trkpt>
      <trkpt lat="59.307987" lon="18.076814">
        <ele>30</ele>
        <time>2019-11-20T06:35:56Z</time>
      </trkpt>
      <trkpt lat="59.308002" lon="18.076775">
        <ele>31</ele>
        <time>2019-11-20T06:35:57Z</time>
      </trkpt>
      <trkpt lat="59.308029" lon="18.076744">
        <ele>31</ele>
        <time>2019-11-20T06:35:58Z</time>
      </trkpt>
      <trkpt lat="59.308059" lon="18.076724">
        <ele>31</ele>
        <time>2019-11-20T06:35:59Z</time>
      </trkpt>
      <trkpt lat="59.308088" lon="18.076699">
        <ele>31</ele>
        <time>2019-11-20T06:36:00Z</time>
      </trkpt>
      <trkpt lat="59.308116" lon="18.076678">
        <ele>31</ele>
        <time>2019-11-20T06:36:01Z</time>
      </trkpt>
      <trkpt lat="59.308155" lon="18.076646">
        <ele>31</ele>
        <time>2019-11-20T06:36:02Z</time>
      </trkpt>
      <trkpt lat="59.30819" lon="18.0766">
        <ele>31</ele>
        <time>2019-11-20T06:36:03Z</time>
      </trkpt>
      <trkpt lat="59.308219" lon="18.076566">
        <ele>31</ele>
        <time>2019-11-20T06:36:04Z</time>
      </trkpt>
      <trkpt lat="59.308246" lon="18.076553">
        <ele>31</ele>
        <time>2019-11-20T06:36:05Z</time>
      </trkpt>
      <trkpt lat="59.308276" lon="18.076538">
        <ele>31</ele>
        <time>2019-11-20T06:36:06Z</time>
      </trkpt>
      <trkpt lat="59.308305" lon="18.076522">
        <ele>31</ele>
        <time>2019-11-20T06:36:07Z</time>
      </trkpt>
      <trkpt lat="59.30839" lon="18.076466">
        <ele>31</ele>
        <time>2019-11-20T06:36:10Z</time>
      </trkpt>
      <trkpt lat="59.308417" lon="18.076442">
        <ele>31</ele>
        <time>2019-11-20T06:36:11Z</time>
      </trkpt>
      <trkpt lat="59.308446" lon="18.076427">
        <ele>31</ele>
        <time>2019-11-20T06:36:12Z</time>
      </trkpt>
      <trkpt lat="59.308537" lon="18.076406">
        <ele>31</ele>
        <time>2019-11-20T06:36:15Z</time>
      </trkpt>
      <trkpt lat="59.308568" lon="18.076401">
        <ele>31</ele>
        <time>2019-11-20T06:36:16Z</time>
      </trkpt>
      <trkpt lat="59.308599" lon="18.076406">
        <ele>31</ele>
        <time>2019-11-20T06:36:17Z</time>
      </trkpt>
      <trkpt lat="59.308624" lon="18.076382">
        <ele>30</ele>
        <time>2019-11-20T06:36:18Z</time>
      </trkpt>
      <trkpt lat="59.308651" lon="18.076358">
        <ele>30</ele>
        <time>2019-11-20T06:36:19Z</time>
      </trkpt>
      <trkpt lat="59.308668" lon="18.076304">
        <ele>30</ele>
        <time>2019-11-20T06:36:20Z</time>
      </trkpt>
      <trkpt lat="59.308696" lon="18.076295">
        <ele>30</ele>
        <time>2019-11-20T06:36:21Z</time>
      </trkpt>
      <trkpt lat="59.308723" lon="18.076269">
        <ele>30</ele>
        <time>2019-11-20T06:36:22Z</time>
      </trkpt>
      <trkpt lat="59.308745" lon="18.076235">
        <ele>29</ele>
        <time>2019-11-20T06:36:23Z</time>
      </trkpt>
      <trkpt lat="59.308772" lon="18.076226">
        <ele>29</ele>
        <time>2019-11-20T06:36:24Z</time>
      </trkpt>
      <trkpt lat="59.308798" lon="18.076213">
        <ele>29</ele>
        <time>2019-11-20T06:36:25Z</time>
      </trkpt>
      <trkpt lat="59.308824" lon="18.0762">
        <ele>29</ele>
        <time>2019-11-20T06:36:26Z</time>
      </trkpt>
      <trkpt lat="59.308851" lon="18.076191">
        <ele>29</ele>
        <time>2019-11-20T06:36:27Z</time>
      </trkpt>
      <trkpt lat="59.30888" lon="18.076182">
        <ele>29</ele>
        <time>2019-11-20T06:36:28Z</time>
      </trkpt>
      <trkpt lat="59.308907" lon="18.076174">
        <ele>29</ele>
        <time>2019-11-20T06:36:29Z</time>
      </trkpt>
      <trkpt lat="59.308935" lon="18.076162">
        <ele>29</ele>
        <time>2019-11-20T06:36:30Z</time>
      </trkpt>
      <trkpt lat="59.308965" lon="18.076152">
        <ele>28</ele>
        <time>2019-11-20T06:36:31Z</time>
      </trkpt>
      <trkpt lat="59.308994" lon="18.076142">
        <ele>28</ele>
        <time>2019-11-20T06:36:32Z</time>
      </trkpt>
      <trkpt lat="59.309022" lon="18.076133">
        <ele>28</ele>
        <time>2019-11-20T06:36:33Z</time>
      </trkpt>
      <trkpt lat="59.309051" lon="18.076126">
        <ele>28</ele>
        <time>2019-11-20T06:36:34Z</time>
      </trkpt>
      <trkpt lat="59.309082" lon="18.076116">
        <ele>28</ele>
        <time>2019-11-20T06:36:35Z</time>
      </trkpt>
      <trkpt lat="59.309112" lon="18.076109">
        <ele>28</ele>
        <time>2019-11-20T06:36:36Z</time>
      </trkpt>
      <trkpt lat="59.309141" lon="18.076104">
        <ele>28</ele>
        <time>2019-11-20T06:36:37Z</time>
      </trkpt>
      <trkpt lat="59.30917" lon="18.076095">
        <ele>28</ele>
        <time>2019-11-20T06:36:38Z</time>
      </trkpt>
      <trkpt lat="59.309196" lon="18.076084">
        <ele>28</ele>
        <time>2019-11-20T06:36:39Z</time>
      </trkpt>
      <trkpt lat="59.309223" lon="18.07607">
        <ele>28</ele>
        <time>2019-11-20T06:36:40Z</time>
      </trkpt>
      <trkpt lat="59.309251" lon="18.076062">
        <ele>28</ele>
        <time>2019-11-20T06:36:41Z</time>
      </trkpt>
      <trkpt lat="59.309281" lon="18.076055">
        <ele>28</ele>
        <time>2019-11-20T06:36:42Z</time>
      </trkpt>
      <trkpt lat="59.309312" lon="18.076053">
        <ele>28</ele>
        <time>2019-11-20T06:36:43Z</time>
      </trkpt>
      <trkpt lat="59.309344" lon="18.076051">
        <ele>28</ele>
        <time>2019-11-20T06:36:44Z</time>
      </trkpt>
      <trkpt lat="59.309375" lon="18.076039">
        <ele>28</ele>
        <time>2019-11-20T06:36:45Z</time>
      </trkpt>
      <trkpt lat="59.309408" lon="18.076025">
        <ele>28</ele>
        <time>2019-11-20T06:36:46Z</time>
      </trkpt>
      <trkpt lat="59.309439" lon="18.076015">
        <ele>28</ele>
        <time>2019-11-20T06:36:47Z</time>
      </trkpt>
      <trkpt lat="59.309469" lon="18.075995">
        <ele>28</ele>
        <time>2019-11-20T06:36:48Z</time>
      </trkpt>
      <trkpt lat="59.309495" lon="18.075959">
        <ele>28</ele>
        <time>2019-11-20T06:36:49Z</time>
      </trkpt>
      <trkpt lat="59.309523" lon="18.075933">
        <ele>28</ele>
        <time>2019-11-20T06:36:50Z</time>
      </trkpt>
      <trkpt lat="59.309552" lon="18.075904">
        <ele>28</ele>
        <time>2019-11-20T06:36:51Z</time>
      </trkpt>
      <trkpt lat="59.30957" lon="18.075843">
        <ele>28</ele>
        <time>2019-11-20T06:36:52Z</time>
      </trkpt>
      <trkpt lat="59.3096" lon="18.075825">
        <ele>28</ele>
        <time>2019-11-20T06:36:53Z</time>
      </trkpt>
      <trkpt lat="59.30963" lon="18.075806">
        <ele>28</ele>
        <time>2019-11-20T06:36:54Z</time>
      </trkpt>
      <trkpt lat="59.309659" lon="18.075785">
        <ele>27</ele>
        <time>2019-11-20T06:36:55Z</time>
      </trkpt>
      <trkpt lat="59.309692" lon="18.075766">
        <ele>28</ele>
        <time>2019-11-20T06:36:56Z</time>
      </trkpt>
      <trkpt lat="59.309722" lon="18.075756">
        <ele>27</ele>
        <time>2019-11-20T06:36:57Z</time>
      </trkpt>
      <trkpt lat="59.309748" lon="18.075735">
        <ele>27</ele>
        <time>2019-11-20T06:36:58Z</time>
      </trkpt>
      <trkpt lat="59.309777" lon="18.075729">
        <ele>27</ele>
        <time>2019-11-20T06:36:59Z</time>
      </trkpt>
      <trkpt lat="59.309805" lon="18.075718">
        <ele>27</ele>
        <time>2019-11-20T06:37:00Z</time>
      </trkpt>
      <trkpt lat="59.309833" lon="18.075709">
        <ele>27</ele>
        <time>2019-11-20T06:37:01Z</time>
      </trkpt>
      <trkpt lat="59.309863" lon="18.075695">
        <ele>28</ele>
        <time>2019-11-20T06:37:02Z</time>
      </trkpt>
      <trkpt lat="59.309893" lon="18.075683">
        <ele>28</ele>
        <time>2019-11-20T06:37:03Z</time>
      </trkpt>
      <trkpt lat="59.309921" lon="18.075671">
        <ele>28</ele>
        <time>2019-11-20T06:37:04Z</time>
      </trkpt>
      <trkpt lat="59.309949" lon="18.075659">
        <ele>28</ele>
        <time>2019-11-20T06:37:05Z</time>
      </trkpt>
      <trkpt lat="59.30998" lon="18.075653">
        <ele>28</ele>
        <time>2019-11-20T06:37:06Z</time>
      </trkpt>
      <trkpt lat="59.310012" lon="18.07565">
        <ele>28</ele>
        <time>2019-11-20T06:37:07Z</time>
      </trkpt>
      <trkpt lat="59.31004" lon="18.075647">
        <ele>28</ele>
        <time>2019-11-20T06:37:08Z</time>
      </trkpt>
      <trkpt lat="59.310066" lon="18.075641">
        <ele>28</ele>
        <time>2019-11-20T06:37:09Z</time>
      </trkpt>
      <trkpt lat="59.310095" lon="18.075633">
        <ele>28</ele>
        <time>2019-11-20T06:37:11Z</time>
      </trkpt>
      <trkpt lat="59.310121" lon="18.075614">
        <ele>28</ele>
        <time>2019-11-20T06:37:11Z</time>
      </trkpt>
      <trkpt lat="59.310147" lon="18.075591">
        <ele>28</ele>
        <time>2019-11-20T06:37:12Z</time>
      </trkpt>
      <trkpt lat="59.310171" lon="18.075573">
        <ele>28</ele>
        <time>2019-11-20T06:37:13Z</time>
      </trkpt>
      <trkpt lat="59.310247" lon="18.075519">
        <ele>29</ele>
        <time>2019-11-20T06:37:16Z</time>
      </trkpt>
      <trkpt lat="59.310273" lon="18.075499">
        <ele>29</ele>
        <time>2019-11-20T06:37:17Z</time>
      </trkpt>
      <trkpt lat="59.310299" lon="18.075481">
        <ele>29</ele>
        <time>2019-11-20T06:37:18Z</time>
      </trkpt>
      <trkpt lat="59.3104" lon="18.075418">
        <ele>29</ele>
        <time>2019-11-20T06:37:22Z</time>
      </trkpt>
      <trkpt lat="59.310422" lon="18.075393">
        <ele>29</ele>
        <time>2019-11-20T06:37:23Z</time>
      </trkpt>
      <trkpt lat="59.310446" lon="18.07537">
        <ele>29</ele>
        <time>2019-11-20T06:37:24Z</time>
      </trkpt>
      <trkpt lat="59.310468" lon="18.075353">
        <ele>29</ele>
        <time>2019-11-20T06:37:25Z</time>
      </trkpt>
      <trkpt lat="59.310485" lon="18.075318">
        <ele>28</ele>
        <time>2019-11-20T06:37:26Z</time>
      </trkpt>
      <trkpt lat="59.310511" lon="18.0753">
        <ele>28</ele>
        <time>2019-11-20T06:37:27Z</time>
      </trkpt>
      <trkpt lat="59.310537" lon="18.075279">
        <ele>29</ele>
        <time>2019-11-20T06:37:28Z</time>
      </trkpt>
      <trkpt lat="59.310558" lon="18.075249">
        <ele>29</ele>
        <time>2019-11-20T06:37:29Z</time>
      </trkpt>
      <trkpt lat="59.31058" lon="18.075218">
        <ele>30</ele>
        <time>2019-11-20T06:37:30Z</time>
      </trkpt>
      <trkpt lat="59.310598" lon="18.075176">
        <ele>30</ele>
        <time>2019-11-20T06:37:31Z</time>
      </trkpt>
      <trkpt lat="59.310613" lon="18.075135">
        <ele>30</ele>
        <time>2019-11-20T06:37:32Z</time>
      </trkpt>
      <trkpt lat="59.310634" lon="18.075118">
        <ele>30</ele>
        <time>2019-11-20T06:37:33Z</time>
      </trkpt>
      <trkpt lat="59.310648" lon="18.075079">
        <ele>30</ele>
        <time>2019-11-20T06:37:34Z</time>
      </trkpt>
      <trkpt lat="59.310664" lon="18.075041">
        <ele>31</ele>
        <time>2019-11-20T06:37:35Z</time>
      </trkpt>
      <trkpt lat="59.310681" lon="18.075007">
        <ele>31</ele>
        <time>2019-11-20T06:37:36Z</time>
      </trkpt>
      <trkpt lat="59.310701" lon="18.074979">
        <ele>31</ele>
        <time>2019-11-20T06:37:37Z</time>
      </trkpt>
      <trkpt lat="59.310728" lon="18.074948">
        <ele>32</ele>
        <time>2019-11-20T06:37:38Z</time>
      </trkpt>
      <trkpt lat="59.310752" lon="18.074912">
        <ele>32</ele>
        <time>2019-11-20T06:37:39Z</time>
      </trkpt>
      <trkpt lat="59.310775" lon="18.074877">
        <ele>31</ele>
        <time>2019-11-20T06:37:40Z</time>
      </trkpt>
      <trkpt lat="59.310864" lon="18.074796">
        <ele>32</ele>
        <time>2019-11-20T06:37:43Z</time>
      </trkpt>
      <trkpt lat="59.310954" lon="18.074754">
        <ele>32</ele>
        <time>2019-11-20T06:37:46Z</time>
      </trkpt>
      <trkpt lat="59.311084" lon="18.074716">
        <ele>32</ele>
        <time>2019-11-20T06:37:49Z</time>
      </trkpt>
      <trkpt lat="59.311191" lon="18.074682">
        <ele>31</ele>
        <time>2019-11-20T06:37:52Z</time>
      </trkpt>
      <trkpt lat="59.311273" lon="18.07461">
        <ele>31</ele>
        <time>2019-11-20T06:37:55Z</time>
      </trkpt>
      <trkpt lat="59.311372" lon="18.074527">
        <ele>30</ele>
        <time>2019-11-20T06:37:58Z</time>
      </trkpt>
      <trkpt lat="59.311469" lon="18.074521">
        <ele>30</ele>
        <time>2019-11-20T06:38:01Z</time>
      </trkpt>
      <trkpt lat="59.311533" lon="18.074552">
        <ele>30</ele>
        <time>2019-11-20T06:38:03Z</time>
      </trkpt>
      <trkpt lat="59.311568" lon="18.074565">
        <ele>32</ele>
        <time>2019-11-20T06:38:04Z</time>
      </trkpt>
      <trkpt lat="59.311601" lon="18.074582">
        <ele>33</ele>
        <time>2019-11-20T06:38:05Z</time>
      </trkpt>
      <trkpt lat="59.311634" lon="18.074594">
        <ele>33</ele>
        <time>2019-11-20T06:38:06Z</time>
      </trkpt>
      <trkpt lat="59.311667" lon="18.0746">
        <ele>34</ele>
        <time>2019-11-20T06:38:07Z</time>
      </trkpt>
      <trkpt lat="59.311779" lon="18.074568">
        <ele>33</ele>
        <time>2019-11-20T06:38:11Z</time>
      </trkpt>
      <trkpt lat="59.311832" lon="18.074312">
        <ele>36</ele>
        <time>2019-11-20T06:38:14Z</time>
      </trkpt>
      <trkpt lat="59.311869" lon="18.074145">
        <ele>37</ele>
        <time>2019-11-20T06:38:16Z</time>
      </trkpt>
      <trkpt lat="59.311986" lon="18.07411">
        <ele>38</ele>
        <time>2019-11-20T06:38:19Z</time>
      </trkpt>
      <trkpt lat="59.312014" lon="18.074092">
        <ele>38</ele>
        <time>2019-11-20T06:38:20Z</time>
      </trkpt>
      <trkpt lat="59.312041" lon="18.074084">
        <ele>38</ele>
        <time>2019-11-20T06:38:21Z</time>
      </trkpt>
      <trkpt lat="59.312068" lon="18.074087">
        <ele>37</ele>
        <time>2019-11-20T06:38:22Z</time>
      </trkpt>
      <trkpt lat="59.312094" lon="18.074089">
        <ele>37</ele>
        <time>2019-11-20T06:38:23Z</time>
      </trkpt>
      <trkpt lat="59.312121" lon="18.074099">
        <ele>36</ele>
        <time>2019-11-20T06:38:24Z</time>
      </trkpt>
      <trkpt lat="59.31215" lon="18.074103">
        <ele>36</ele>
        <time>2019-11-20T06:38:25Z</time>
      </trkpt>
      <trkpt lat="59.31218" lon="18.074105">
        <ele>36</ele>
        <time>2019-11-20T06:38:26Z</time>
      </trkpt>
      <trkpt lat="59.31221" lon="18.074105">
        <ele>35</ele>
        <time>2019-11-20T06:38:27Z</time>
      </trkpt>
      <trkpt lat="59.312237" lon="18.074106">
        <ele>35</ele>
        <time>2019-11-20T06:38:28Z</time>
      </trkpt>
      <trkpt lat="59.312265" lon="18.074111">
        <ele>35</ele>
        <time>2019-11-20T06:38:29Z</time>
      </trkpt>
      <trkpt lat="59.312288" lon="18.074104">
        <ele>36</ele>
        <time>2019-11-20T06:38:30Z</time>
      </trkpt>
      <trkpt lat="59.312306" lon="18.074093">
        <ele>36</ele>
        <time>2019-11-20T06:38:31Z</time>
      </trkpt>
      <trkpt lat="59.312327" lon="18.074087">
        <ele>36</ele>
        <time>2019-11-20T06:38:32Z</time>
      </trkpt>
      <trkpt lat="59.312349" lon="18.074081">
        <ele>36</ele>
        <time>2019-11-20T06:38:33Z</time>
      </trkpt>
      <trkpt lat="59.312376" lon="18.074069">
        <ele>36</ele>
        <time>2019-11-20T06:38:34Z</time>
      </trkpt>
      <trkpt lat="59.312402" lon="18.074054">
        <ele>35</ele>
        <time>2019-11-20T06:38:35Z</time>
      </trkpt>
      <trkpt lat="59.312423" lon="18.074025">
        <ele>35</ele>
        <time>2019-11-20T06:38:36Z</time>
      </trkpt>
      <trkpt lat="59.312442" lon="18.073987">
        <ele>35</ele>
        <time>2019-11-20T06:38:37Z</time>
      </trkpt>
      <trkpt lat="59.31246" lon="18.073945">
        <ele>35</ele>
        <time>2019-11-20T06:38:38Z</time>
      </trkpt>
      <trkpt lat="59.312479" lon="18.073921">
        <ele>35</ele>
        <time>2019-11-20T06:38:39Z</time>
      </trkpt>
      <trkpt lat="59.312519" lon="18.07389">
        <ele>35</ele>
        <time>2019-11-20T06:38:40Z</time>
      </trkpt>
      <trkpt lat="59.312556" lon="18.07387">
        <ele>34</ele>
        <time>2019-11-20T06:38:41Z</time>
      </trkpt>
      <trkpt lat="59.312589" lon="18.073852">
        <ele>34</ele>
        <time>2019-11-20T06:38:42Z</time>
      </trkpt>
      <trkpt lat="59.312622" lon="18.073844">
        <ele>34</ele>
        <time>2019-11-20T06:38:43Z</time>
      </trkpt>
      <trkpt lat="59.312684" lon="18.073801">
        <ele>33</ele>
        <time>2019-11-20T06:38:45Z</time>
      </trkpt>
      <trkpt lat="59.312703" lon="18.073788">
        <ele>33</ele>
        <time>2019-11-20T06:38:46Z</time>
      </trkpt>
      <trkpt lat="59.312734" lon="18.073778">
        <ele>33</ele>
        <time>2019-11-20T06:38:47Z</time>
      </trkpt>
      <trkpt lat="59.312806" lon="18.0738">
        <ele>33</ele>
        <time>2019-11-20T06:38:49Z</time>
      </trkpt>
      <trkpt lat="59.312842" lon="18.073809">
        <ele>33</ele>
        <time>2019-11-20T06:38:50Z</time>
      </trkpt>
      <trkpt lat="59.312872" lon="18.073824">
        <ele>33</ele>
        <time>2019-11-20T06:38:51Z</time>
      </trkpt>
      <trkpt lat="59.312904" lon="18.073846">
        <ele>33</ele>
        <time>2019-11-20T06:38:52Z</time>
      </trkpt>
      <trkpt lat="59.312937" lon="18.073877">
        <ele>33</ele>
        <time>2019-11-20T06:38:53Z</time>
      </trkpt>
      <trkpt lat="59.312971" lon="18.073901">
        <ele>34</ele>
        <time>2019-11-20T06:38:54Z</time>
      </trkpt>
      <trkpt lat="59.313" lon="18.073911">
        <ele>34</ele>
        <time>2019-11-20T06:38:55Z</time>
      </trkpt>
      <trkpt lat="59.31303" lon="18.07391">
        <ele>34</ele>
        <time>2019-11-20T06:38:56Z</time>
      </trkpt>
      <trkpt lat="59.313055" lon="18.073911">
        <ele>34</ele>
        <time>2019-11-20T06:38:57Z</time>
      </trkpt>
      <trkpt lat="59.313078" lon="18.073908">
        <ele>34</ele>
        <time>2019-11-20T06:38:58Z</time>
      </trkpt>
      <trkpt lat="59.313103" lon="18.073901">
        <ele>33</ele>
        <time>2019-11-20T06:38:59Z</time>
      </trkpt>
      <trkpt lat="59.313128" lon="18.073894">
        <ele>33</ele>
        <time>2019-11-20T06:39:00Z</time>
      </trkpt>
      <trkpt lat="59.313156" lon="18.073885">
        <ele>33</ele>
        <time>2019-11-20T06:39:01Z</time>
      </trkpt>
      <trkpt lat="59.313183" lon="18.073878">
        <ele>33</ele>
        <time>2019-11-20T06:39:02Z</time>
      </trkpt>
      <trkpt lat="59.313209" lon="18.073868">
        <ele>33</ele>
        <time>2019-11-20T06:39:03Z</time>
      </trkpt>
      <trkpt lat="59.313239" lon="18.073865">
        <ele>33</ele>
        <time>2019-11-20T06:39:05Z</time>
      </trkpt>
      <trkpt lat="59.313268" lon="18.073855">
        <ele>33</ele>
        <time>2019-11-20T06:39:05Z</time>
      </trkpt>
      <trkpt lat="59.313293" lon="18.073844">
        <ele>32</ele>
        <time>2019-11-20T06:39:06Z</time>
      </trkpt>
      <trkpt lat="59.313322" lon="18.073841">
        <ele>32</ele>
        <time>2019-11-20T06:39:07Z</time>
      </trkpt>
      <trkpt lat="59.313351" lon="18.073836">
        <ele>32</ele>
        <time>2019-11-20T06:39:08Z</time>
      </trkpt>
      <trkpt lat="59.313376" lon="18.073824">
        <ele>32</ele>
        <time>2019-11-20T06:39:09Z</time>
      </trkpt>
      <trkpt lat="59.313402" lon="18.073815">
        <ele>32</ele>
        <time>2019-11-20T06:39:10Z</time>
      </trkpt>
      <trkpt lat="59.313427" lon="18.073804">
        <ele>32</ele>
        <time>2019-11-20T06:39:11Z</time>
      </trkpt>
      <trkpt lat="59.313454" lon="18.073793">
        <ele>32</ele>
        <time>2019-11-20T06:39:12Z</time>
      </trkpt>
      <trkpt lat="59.313478" lon="18.073776">
        <ele>32</ele>
        <time>2019-11-20T06:39:13Z</time>
      </trkpt>
      <trkpt lat="59.313504" lon="18.073768">
        <ele>32</ele>
        <time>2019-11-20T06:39:14Z</time>
      </trkpt>
      <trkpt lat="59.313528" lon="18.073744">
        <ele>32</ele>
        <time>2019-11-20T06:39:15Z</time>
      </trkpt>
      <trkpt lat="59.313546" lon="18.073717">
        <ele>32</ele>
        <time>2019-11-20T06:39:16Z</time>
      </trkpt>
      <trkpt lat="59.313569" lon="18.073681">
        <ele>32</ele>
        <time>2019-11-20T06:39:17Z</time>
      </trkpt>
      <trkpt lat="59.313592" lon="18.073657">
        <ele>32</ele>
        <time>2019-11-20T06:39:18Z</time>
      </trkpt>
      <trkpt lat="59.313613" lon="18.073611">
        <ele>32</ele>
        <time>2019-11-20T06:39:19Z</time>
      </trkpt>
      <trkpt lat="59.313691" lon="18.073493">
        <ele>31</ele>
        <time>2019-11-20T06:39:24Z</time>
      </trkpt>
      <trkpt lat="59.313778" lon="18.073419">
        <ele>31</ele>
        <time>2019-11-20T06:39:28Z</time>
      </trkpt>
      <trkpt lat="59.313878" lon="18.07336">
        <ele>31</ele>
        <time>2019-11-20T06:39:32Z</time>
      </trkpt>
      <trkpt lat="59.31394" lon="18.073299">
        <ele>30</ele>
        <time>2019-11-20T06:39:34Z</time>
      </trkpt>
      <trkpt lat="59.313982" lon="18.073276">
        <ele>30</ele>
        <time>2019-11-20T06:39:35Z</time>
      </trkpt>
      <trkpt lat="59.314018" lon="18.073288">
        <ele>30</ele>
        <time>2019-11-20T06:39:36Z</time>
      </trkpt>
      <trkpt lat="59.314054" lon="18.073328">
        <ele>30</ele>
        <time>2019-11-20T06:39:37Z</time>
      </trkpt>
      <trkpt lat="59.314086" lon="18.073374">
        <ele>31</ele>
        <time>2019-11-20T06:39:38Z</time>
      </trkpt>
      <trkpt lat="59.314124" lon="18.073406">
        <ele>30</ele>
        <time>2019-11-20T06:39:39Z</time>
      </trkpt>
      <trkpt lat="59.314165" lon="18.073418">
        <ele>30</ele>
        <time>2019-11-20T06:39:40Z</time>
      </trkpt>
      <trkpt lat="59.314208" lon="18.073418">
        <ele>31</ele>
        <time>2019-11-20T06:39:41Z</time>
      </trkpt>
      <trkpt lat="59.314243" lon="18.073411">
        <ele>32</ele>
        <time>2019-11-20T06:39:43Z</time>
      </trkpt>
      <trkpt lat="59.314274" lon="18.073404">
        <ele>32</ele>
        <time>2019-11-20T06:39:43Z</time>
      </trkpt>
      <trkpt lat="59.314304" lon="18.07338">
        <ele>32</ele>
        <time>2019-11-20T06:39:44Z</time>
      </trkpt>
      <trkpt lat="59.314337" lon="18.073368">
        <ele>32</ele>
        <time>2019-11-20T06:39:45Z</time>
      </trkpt>
      <trkpt lat="59.314368" lon="18.073327">
        <ele>32</ele>
        <time>2019-11-20T06:39:46Z</time>
      </trkpt>
      <trkpt lat="59.314454" lon="18.07325">
        <ele>31</ele>
        <time>2019-11-20T06:39:49Z</time>
      </trkpt>
      <trkpt lat="59.314534" lon="18.073112">
        <ele>30</ele>
        <time>2019-11-20T06:39:52Z</time>
      </trkpt>
      <trkpt lat="59.314623" lon="18.073018">
        <ele>30</ele>
        <time>2019-11-20T06:39:55Z</time>
      </trkpt>
      <trkpt lat="59.314671" lon="18.072991">
        <ele>30</ele>
        <time>2019-11-20T06:39:57Z</time>
      </trkpt>
      <trkpt lat="59.3147" lon="18.072996">
        <ele>30</ele>
        <time>2019-11-20T06:39:58Z</time>
      </trkpt>
      <trkpt lat="59.314738" lon="18.073011">
        <ele>31</ele>
        <time>2019-11-20T06:39:59Z</time>
      </trkpt>
      <trkpt lat="59.314774" lon="18.073011">
        <ele>32</ele>
        <time>2019-11-20T06:40:00Z</time>
      </trkpt>
      <trkpt lat="59.314808" lon="18.073001">
        <ele>32</ele>
        <time>2019-11-20T06:40:01Z</time>
      </trkpt>
      <trkpt lat="59.314835" lon="18.073005">
        <ele>32</ele>
        <time>2019-11-20T06:40:02Z</time>
      </trkpt>
      <trkpt lat="59.314867" lon="18.073013">
        <ele>32</ele>
        <time>2019-11-20T06:40:03Z</time>
      </trkpt>
      <trkpt lat="59.3149" lon="18.073015">
        <ele>32</ele>
        <time>2019-11-20T06:40:04Z</time>
      </trkpt>
      <trkpt lat="59.314936" lon="18.07302">
        <ele>33</ele>
        <time>2019-11-20T06:40:05Z</time>
      </trkpt>
      <trkpt lat="59.31497" lon="18.073021">
        <ele>33</ele>
        <time>2019-11-20T06:40:06Z</time>
      </trkpt>
      <trkpt lat="59.315003" lon="18.073023">
        <ele>33</ele>
        <time>2019-11-20T06:40:07Z</time>
      </trkpt>
      <trkpt lat="59.315032" lon="18.073023">
        <ele>33</ele>
        <time>2019-11-20T06:40:08Z</time>
      </trkpt>
      <trkpt lat="59.31506" lon="18.073022">
        <ele>33</ele>
        <time>2019-11-20T06:40:09Z</time>
      </trkpt>
      <trkpt lat="59.315089" lon="18.073023">
        <ele>33</ele>
        <time>2019-11-20T06:40:10Z</time>
      </trkpt>
      <trkpt lat="59.315117" lon="18.073017">
        <ele>33</ele>
        <time>2019-11-20T06:40:11Z</time>
      </trkpt>
      <trkpt lat="59.315141" lon="18.073009">
        <ele>33</ele>
        <time>2019-11-20T06:40:12Z</time>
      </trkpt>
      <trkpt lat="59.315164" lon="18.073003">
        <ele>32</ele>
        <time>2019-11-20T06:40:13Z</time>
      </trkpt>
      <trkpt lat="59.315188" lon="18.072995">
        <ele>32</ele>
        <time>2019-11-20T06:40:14Z</time>
      </trkpt>
      <trkpt lat="59.315214" lon="18.072989">
        <ele>32</ele>
        <time>2019-11-20T06:40:15Z</time>
      </trkpt>
      <trkpt lat="59.315241" lon="18.072981">
        <ele>32</ele>
        <time>2019-11-20T06:40:16Z</time>
      </trkpt>
      <trkpt lat="59.315267" lon="18.072974">
        <ele>32</ele>
        <time>2019-11-20T06:40:17Z</time>
      </trkpt>
      <trkpt lat="59.315295" lon="18.072968">
        <ele>32</ele>
        <time>2019-11-20T06:40:18Z</time>
      </trkpt>
      <trkpt lat="59.315323" lon="18.072958">
        <ele>32</ele>
        <time>2019-11-20T06:40:19Z</time>
      </trkpt>
      <trkpt lat="59.315349" lon="18.072944">
        <ele>32</ele>
        <time>2019-11-20T06:40:20Z</time>
      </trkpt>
      <trkpt lat="59.315377" lon="18.072932">
        <ele>32</ele>
        <time>2019-11-20T06:40:21Z</time>
      </trkpt>
      <trkpt lat="59.315404" lon="18.07292">
        <ele>33</ele>
        <time>2019-11-20T06:40:22Z</time>
      </trkpt>
      <trkpt lat="59.315436" lon="18.072905">
        <ele>33</ele>
        <time>2019-11-20T06:40:23Z</time>
      </trkpt>
      <trkpt lat="59.315462" lon="18.072889">
        <ele>33</ele>
        <time>2019-11-20T06:40:24Z</time>
      </trkpt>
      <trkpt lat="59.315487" lon="18.072871">
        <ele>34</ele>
        <time>2019-11-20T06:40:25Z</time>
      </trkpt>
      <trkpt lat="59.315512" lon="18.072851">
        <ele>34</ele>
        <time>2019-11-20T06:40:26Z</time>
      </trkpt>
      <trkpt lat="59.315536" lon="18.072832">
        <ele>34</ele>
        <time>2019-11-20T06:40:27Z</time>
      </trkpt>
      <trkpt lat="59.315561" lon="18.072813">
        <ele>34</ele>
        <time>2019-11-20T06:40:28Z</time>
      </trkpt>
      <trkpt lat="59.315588" lon="18.072794">
        <ele>34</ele>
        <time>2019-11-20T06:40:29Z</time>
      </trkpt>
      <trkpt lat="59.315615" lon="18.072769">
        <ele>34</ele>
        <time>2019-11-20T06:40:30Z</time>
      </trkpt>
      <trkpt lat="59.315639" lon="18.072736">
        <ele>34</ele>
        <time>2019-11-20T06:40:31Z</time>
      </trkpt>
      <trkpt lat="59.315658" lon="18.072703">
        <ele>34</ele>
        <time>2019-11-20T06:40:32Z</time>
      </trkpt>
      <trkpt lat="59.315675" lon="18.072671">
        <ele>34</ele>
        <time>2019-11-20T06:40:33Z</time>
      </trkpt>
      <trkpt lat="59.315694" lon="18.072636">
        <ele>34</ele>
        <time>2019-11-20T06:40:34Z</time>
      </trkpt>
      <trkpt lat="59.315719" lon="18.072609">
        <ele>34</ele>
        <time>2019-11-20T06:40:35Z</time>
      </trkpt>
      <trkpt lat="59.315747" lon="18.072594">
        <ele>34</ele>
        <time>2019-11-20T06:40:36Z</time>
      </trkpt>
      <trkpt lat="59.315777" lon="18.072588">
        <ele>34</ele>
        <time>2019-11-20T06:40:37Z</time>
      </trkpt>
      <trkpt lat="59.315804" lon="18.072575">
        <ele>34</ele>
        <time>2019-11-20T06:40:38Z</time>
      </trkpt>
      <trkpt lat="59.315832" lon="18.072565">
        <ele>34</ele>
        <time>2019-11-20T06:40:39Z</time>
      </trkpt>
      <trkpt lat="59.315855" lon="18.072553">
        <ele>35</ele>
        <time>2019-11-20T06:40:40Z</time>
      </trkpt>
      <trkpt lat="59.315884" lon="18.072544">
        <ele>35</ele>
        <time>2019-11-20T06:40:41Z</time>
      </trkpt>
      <trkpt lat="59.315907" lon="18.072524">
        <ele>35</ele>
        <time>2019-11-20T06:40:42Z</time>
      </trkpt>
      <trkpt lat="59.31593" lon="18.072506">
        <ele>35</ele>
        <time>2019-11-20T06:40:43Z</time>
      </trkpt>
      <trkpt lat="59.315953" lon="18.07248">
        <ele>35</ele>
        <time>2019-11-20T06:40:44Z</time>
      </trkpt>
      <trkpt lat="59.315978" lon="18.072464">
        <ele>35</ele>
        <time>2019-11-20T06:40:45Z</time>
      </trkpt>
      <trkpt lat="59.316002" lon="18.072449">
        <ele>35</ele>
        <time>2019-11-20T06:40:46Z</time>
      </trkpt>
      <trkpt lat="59.316029" lon="18.07244">
        <ele>35</ele>
        <time>2019-11-20T06:40:47Z</time>
      </trkpt>
      <trkpt lat="59.316051" lon="18.072415">
        <ele>35</ele>
        <time>2019-11-20T06:40:48Z</time>
      </trkpt>
      <trkpt lat="59.316073" lon="18.072396">
        <ele>35</ele>
        <time>2019-11-20T06:40:49Z</time>
      </trkpt>
      <trkpt lat="59.316167" lon="18.072304">
        <ele>35</ele>
        <time>2019-11-20T06:40:53Z</time>
      </trkpt>
      <trkpt lat="59.316264" lon="18.072234">
        <ele>35</ele>
        <time>2019-11-20T06:40:57Z</time>
      </trkpt>
      <trkpt lat="59.316293" lon="18.072219">
        <ele>35</ele>
        <time>2019-11-20T06:40:58Z</time>
      </trkpt>
      <trkpt lat="59.316344" lon="18.072206">
        <ele>35</ele>
        <time>2019-11-20T06:41:00Z</time>
      </trkpt>
      <trkpt lat="59.316444" lon="18.072152">
        <ele>35</ele>
        <time>2019-11-20T06:41:04Z</time>
      </trkpt>
      <trkpt lat="59.3165" lon="18.072117">
        <ele>35</ele>
        <time>2019-11-20T06:41:06Z</time>
      </trkpt>
      <trkpt lat="59.31656" lon="18.072117">
        <ele>35</ele>
        <time>2019-11-20T06:41:08Z</time>
      </trkpt>
      <trkpt lat="59.31668" lon="18.072141">
        <ele>36</ele>
        <time>2019-11-20T06:41:12Z</time>
      </trkpt>
      <trkpt lat="59.316746" lon="18.072138">
        <ele>36</ele>
        <time>2019-11-20T06:41:14Z</time>
      </trkpt>
      <trkpt lat="59.316772" lon="18.072115">
        <ele>36</ele>
        <time>2019-11-20T06:41:15Z</time>
      </trkpt>
      <trkpt lat="59.316797" lon="18.072094">
        <ele>36</ele>
        <time>2019-11-20T06:41:16Z</time>
      </trkpt>
      <trkpt lat="59.316822" lon="18.072082">
        <ele>36</ele>
        <time>2019-11-20T06:41:17Z</time>
      </trkpt>
      <trkpt lat="59.316849" lon="18.072058">
        <ele>36</ele>
        <time>2019-11-20T06:41:18Z</time>
      </trkpt>
      <trkpt lat="59.316872" lon="18.072034">
        <ele>36</ele>
        <time>2019-11-20T06:41:19Z</time>
      </trkpt>
      <trkpt lat="59.316892" lon="18.072007">
        <ele>36</ele>
        <time>2019-11-20T06:41:20Z</time>
      </trkpt>
      <trkpt lat="59.316917" lon="18.07199">
        <ele>36</ele>
        <time>2019-11-20T06:41:21Z</time>
      </trkpt>
      <trkpt lat="59.316943" lon="18.071963">
        <ele>36</ele>
        <time>2019-11-20T06:41:22Z</time>
      </trkpt>
      <trkpt lat="59.316968" lon="18.071939">
        <ele>36</ele>
        <time>2019-11-20T06:41:23Z</time>
      </trkpt>
      <trkpt lat="59.316996" lon="18.071929">
        <ele>36</ele>
        <time>2019-11-20T06:41:24Z</time>
      </trkpt>
      <trkpt lat="59.317049" lon="18.071916">
        <ele>36</ele>
        <time>2019-11-20T06:41:26Z</time>
      </trkpt>
      <trkpt lat="59.317149" lon="18.071861">
        <ele>36</ele>
        <time>2019-11-20T06:41:30Z</time>
      </trkpt>
      <trkpt lat="59.31723" lon="18.071772">
        <ele>37</ele>
        <time>2019-11-20T06:41:34Z</time>
      </trkpt>
      <trkpt lat="59.317248" lon="18.071756">
        <ele>37</ele>
        <time>2019-11-20T06:41:35Z</time>
      </trkpt>
      <trkpt lat="59.317271" lon="18.071748">
        <ele>37</ele>
        <time>2019-11-20T06:41:36Z</time>
      </trkpt>
      <trkpt lat="59.317291" lon="18.071735">
        <ele>37</ele>
        <time>2019-11-20T06:41:37Z</time>
      </trkpt>
      <trkpt lat="59.317312" lon="18.071728">
        <ele>37</ele>
        <time>2019-11-20T06:41:38Z</time>
      </trkpt>
      <trkpt lat="59.317337" lon="18.071716">
        <ele>37</ele>
        <time>2019-11-20T06:41:39Z</time>
      </trkpt>
      <trkpt lat="59.31739" lon="18.071677">
        <ele>37</ele>
        <time>2019-11-20T06:41:41Z</time>
      </trkpt>
      <trkpt lat="59.31742" lon="18.071663">
        <ele>37</ele>
        <time>2019-11-20T06:41:42Z</time>
      </trkpt>
      <trkpt lat="59.317457" lon="18.071647">
        <ele>37</ele>
        <time>2019-11-20T06:41:43Z</time>
      </trkpt>
      <trkpt lat="59.317491" lon="18.07163">
        <ele>37</ele>
        <time>2019-11-20T06:41:44Z</time>
      </trkpt>
      <trkpt lat="59.317527" lon="18.071606">
        <ele>37</ele>
        <time>2019-11-20T06:41:45Z</time>
      </trkpt>
      <trkpt lat="59.317559" lon="18.07159">
        <ele>37</ele>
        <time>2019-11-20T06:41:46Z</time>
      </trkpt>
      <trkpt lat="59.317584" lon="18.071567">
        <ele>37</ele>
        <time>2019-11-20T06:41:47Z</time>
      </trkpt>
      <trkpt lat="59.317608" lon="18.071544">
        <ele>37</ele>
        <time>2019-11-20T06:41:48Z</time>
      </trkpt>
      <trkpt lat="59.317634" lon="18.071522">
        <ele>36</ele>
        <time>2019-11-20T06:41:49Z</time>
      </trkpt>
      <trkpt lat="59.317663" lon="18.071515">
        <ele>36</ele>
        <time>2019-11-20T06:41:50Z</time>
      </trkpt>
      <trkpt lat="59.317692" lon="18.07151">
        <ele>36</ele>
        <time>2019-11-20T06:41:51Z</time>
      </trkpt>
      <trkpt lat="59.317724" lon="18.071506">
        <ele>36</ele>
        <time>2019-11-20T06:41:52Z</time>
      </trkpt>
      <trkpt lat="59.317754" lon="18.071509">
        <ele>36</ele>
        <time>2019-11-20T06:41:53Z</time>
      </trkpt>
      <trkpt lat="59.317785" lon="18.071519">
        <ele>37</ele>
        <time>2019-11-20T06:41:54Z</time>
      </trkpt>
      <trkpt lat="59.317817" lon="18.071511">
        <ele>37</ele>
        <time>2019-11-20T06:41:55Z</time>
      </trkpt>
      <trkpt lat="59.317841" lon="18.071495">
        <ele>37</ele>
        <time>2019-11-20T06:41:56Z</time>
      </trkpt>
      <trkpt lat="59.317862" lon="18.07148">
        <ele>37</ele>
        <time>2019-11-20T06:41:57Z</time>
      </trkpt>
      <trkpt lat="59.317888" lon="18.071474">
        <ele>38</ele>
        <time>2019-11-20T06:41:58Z</time>
      </trkpt>
      <trkpt lat="59.31791" lon="18.071458">
        <ele>38</ele>
        <time>2019-11-20T06:41:59Z</time>
      </trkpt>
      <trkpt lat="59.317938" lon="18.071442">
        <ele>38</ele>
        <time>2019-11-20T06:42:00Z</time>
      </trkpt>
      <trkpt lat="59.31796" lon="18.071431">
        <ele>38</ele>
        <time>2019-11-20T06:42:01Z</time>
      </trkpt>
      <trkpt lat="59.317984" lon="18.071423">
        <ele>38</ele>
        <time>2019-11-20T06:42:02Z</time>
      </trkpt>
      <trkpt lat="59.318012" lon="18.071415">
        <ele>39</ele>
        <time>2019-11-20T06:42:03Z</time>
      </trkpt>
      <trkpt lat="59.318041" lon="18.07141">
        <ele>39</ele>
        <time>2019-11-20T06:42:04Z</time>
      </trkpt>
      <trkpt lat="59.318094" lon="18.071396">
        <ele>39</ele>
        <time>2019-11-20T06:42:06Z</time>
      </trkpt>
      <trkpt lat="59.31812" lon="18.071388">
        <ele>39</ele>
        <time>2019-11-20T06:42:07Z</time>
      </trkpt>
      <trkpt lat="59.318174" lon="18.071363">
        <ele>40</ele>
        <time>2019-11-20T06:42:09Z</time>
      </trkpt>
      <trkpt lat="59.318204" lon="18.071352">
        <ele>40</ele>
        <time>2019-11-20T06:42:10Z</time>
      </trkpt>
      <trkpt lat="59.318298" lon="18.071304">
        <ele>40</ele>
        <time>2019-11-20T06:42:13Z</time>
      </trkpt>
      <trkpt lat="59.318388" lon="18.071253">
        <ele>40</ele>
        <time>2019-11-20T06:42:15Z</time>
      </trkpt>
      <trkpt lat="59.318495" lon="18.071173">
        <ele>39</ele>
        <time>2019-11-20T06:42:18Z</time>
      </trkpt>
      <trkpt lat="59.318589" lon="18.071078">
        <ele>39</ele>
        <time>2019-11-20T06:42:21Z</time>
      </trkpt>
      <trkpt lat="59.318615" lon="18.071044">
        <ele>39</ele>
        <time>2019-11-20T06:42:22Z</time>
      </trkpt>
      <trkpt lat="59.318642" lon="18.071016">
        <ele>39</ele>
        <time>2019-11-20T06:42:23Z</time>
      </trkpt>
      <trkpt lat="59.318733" lon="18.071003">
        <ele>39</ele>
        <time>2019-11-20T06:42:26Z</time>
      </trkpt>
      <trkpt lat="59.318854" lon="18.070962">
        <ele>39</ele>
        <time>2019-11-20T06:42:30Z</time>
      </trkpt>
      <trkpt lat="59.31896" lon="18.070918">
        <ele>38</ele>
        <time>2019-11-20T06:42:33Z</time>
      </trkpt>
      <trkpt lat="59.318983" lon="18.07091">
        <ele>38</ele>
        <time>2019-11-20T06:42:34Z</time>
      </trkpt>
      <trkpt lat="59.319027" lon="18.070907">
        <ele>38</ele>
        <time>2019-11-20T06:42:36Z</time>
      </trkpt>
      <trkpt lat="59.31905" lon="18.070901">
        <ele>38</ele>
        <time>2019-11-20T06:42:37Z</time>
      </trkpt>
      <trkpt lat="59.319074" lon="18.070899">
        <ele>38</ele>
        <time>2019-11-20T06:42:38Z</time>
      </trkpt>
      <trkpt lat="59.319182" lon="18.070846">
        <ele>38</ele>
        <time>2019-11-20T06:42:43Z</time>
      </trkpt>
      <trkpt lat="59.319257" lon="18.070788">
        <ele>39</ele>
        <time>2019-11-20T06:42:46Z</time>
      </trkpt>
      <trkpt lat="59.319288" lon="18.070752">
        <ele>38</ele>
        <time>2019-11-20T06:42:47Z</time>
      </trkpt>
      <trkpt lat="59.319356" lon="18.070738">
        <ele>38</ele>
        <time>2019-11-20T06:42:50Z</time>
      </trkpt>
      <trkpt lat="59.319388" lon="18.070734">
        <ele>38</ele>
        <time>2019-11-20T06:42:50Z</time>
      </trkpt>
      <trkpt lat="59.319416" lon="18.070723">
        <ele>38</ele>
        <time>2019-11-20T06:42:51Z</time>
      </trkpt>
      <trkpt lat="59.319445" lon="18.0707">
        <ele>38</ele>
        <time>2019-11-20T06:42:53Z</time>
      </trkpt>
      <trkpt lat="59.319529" lon="18.070631">
        <ele>37</ele>
        <time>2019-11-20T06:42:54Z</time>
      </trkpt>
      <trkpt lat="59.31957" lon="18.070599">
        <ele>37</ele>
        <time>2019-11-20T06:42:55Z</time>
      </trkpt>
      <trkpt lat="59.31967" lon="18.070513">
        <ele>36</ele>
        <time>2019-11-20T06:42:59Z</time>
      </trkpt>
      <trkpt lat="59.319727" lon="18.070462">
        <ele>36</ele>
        <time>2019-11-20T06:43:01Z</time>
      </trkpt>
      <trkpt lat="59.319752" lon="18.070443">
        <ele>36</ele>
        <time>2019-11-20T06:43:02Z</time>
      </trkpt>
      <trkpt lat="59.319775" lon="18.070423">
        <ele>36</ele>
        <time>2019-11-20T06:43:03Z</time>
      </trkpt>
      <trkpt lat="59.319799" lon="18.070407">
        <ele>35</ele>
        <time>2019-11-20T06:43:04Z</time>
      </trkpt>
      <trkpt lat="59.319824" lon="18.070397">
        <ele>35</ele>
        <time>2019-11-20T06:43:05Z</time>
      </trkpt>
      <trkpt lat="59.319843" lon="18.070387">
        <ele>35</ele>
        <time>2019-11-20T06:43:06Z</time>
      </trkpt>
      <trkpt lat="59.319885" lon="18.070453">
        <ele>35</ele>
        <time>2019-11-20T06:43:07Z</time>
      </trkpt>
      <trkpt lat="59.319918" lon="18.070539">
        <ele>35</ele>
        <time>2019-11-20T06:43:08Z</time>
      </trkpt>
      <trkpt lat="59.319947" lon="18.070616">
        <ele>34</ele>
        <time>2019-11-20T06:43:09Z</time>
      </trkpt>
      <trkpt lat="59.32" lon="18.070782">
        <ele>34</ele>
        <time>2019-11-20T06:43:11Z</time>
      </trkpt>
      <trkpt lat="59.320016" lon="18.070853">
        <ele>34</ele>
        <time>2019-11-20T06:43:12Z</time>
      </trkpt>
      <trkpt lat="59.320032" lon="18.070915">
        <ele>34</ele>
        <time>2019-11-20T06:43:13Z</time>
      </trkpt>
      <trkpt lat="59.320048" lon="18.070964">
        <ele>34</ele>
        <time>2019-11-20T06:43:14Z</time>
      </trkpt>
      <trkpt lat="59.320069" lon="18.071002">
        <ele>34</ele>
        <time>2019-11-20T06:43:15Z</time>
      </trkpt>
      <trkpt lat="59.320098" lon="18.071032">
        <ele>34</ele>
        <time>2019-11-20T06:43:16Z</time>
      </trkpt>
      <trkpt lat="59.320125" lon="18.071055">
        <ele>34</ele>
        <time>2019-11-20T06:43:17Z</time>
      </trkpt>
      <trkpt lat="59.320154" lon="18.071076">
        <ele>34</ele>
        <time>2019-11-20T06:43:18Z</time>
      </trkpt>
      <trkpt lat="59.320179" lon="18.071094">
        <ele>34</ele>
        <time>2019-11-20T06:43:19Z</time>
      </trkpt>
      <trkpt lat="59.320203" lon="18.071111">
        <ele>34</ele>
        <time>2019-11-20T06:43:20Z</time>
      </trkpt>
      <trkpt lat="59.320229" lon="18.071126">
        <ele>33</ele>
        <time>2019-11-20T06:43:21Z</time>
      </trkpt>
      <trkpt lat="59.320256" lon="18.071136">
        <ele>33</ele>
        <time>2019-11-20T06:43:22Z</time>
      </trkpt>
      <trkpt lat="59.320282" lon="18.071161">
        <ele>33</ele>
        <time>2019-11-20T06:43:23Z</time>
      </trkpt>
      <trkpt lat="59.320305" lon="18.071199">
        <ele>33</ele>
        <time>2019-11-20T06:43:24Z</time>
      </trkpt>
      <trkpt lat="59.320326" lon="18.071246">
        <ele>33</ele>
        <time>2019-11-20T06:43:25Z</time>
      </trkpt>
      <trkpt lat="59.320344" lon="18.071293">
        <ele>32</ele>
        <time>2019-11-20T06:43:26Z</time>
      </trkpt>
      <trkpt lat="59.320366" lon="18.071329">
        <ele>32</ele>
        <time>2019-11-20T06:43:27Z</time>
      </trkpt>
      <trkpt lat="59.320391" lon="18.071358">
        <ele>32</ele>
        <time>2019-11-20T06:43:28Z</time>
      </trkpt>
      <trkpt lat="59.320415" lon="18.071386">
        <ele>32</ele>
        <time>2019-11-20T06:43:29Z</time>
      </trkpt>
      <trkpt lat="59.320437" lon="18.07141">
        <ele>32</ele>
        <time>2019-11-20T06:43:30Z</time>
      </trkpt>
      <trkpt lat="59.320465" lon="18.071427">
        <ele>31</ele>
        <time>2019-11-20T06:43:31Z</time>
      </trkpt>
      <trkpt lat="59.320492" lon="18.071437">
        <ele>31</ele>
        <time>2019-11-20T06:43:32Z</time>
      </trkpt>
      <trkpt lat="59.320517" lon="18.071441">
        <ele>31</ele>
        <time>2019-11-20T06:43:33Z</time>
      </trkpt>
      <trkpt lat="59.320544" lon="18.071443">
        <ele>31</ele>
        <time>2019-11-20T06:43:34Z</time>
      </trkpt>
      <trkpt lat="59.32057" lon="18.071444">
        <ele>31</ele>
        <time>2019-11-20T06:43:35Z</time>
      </trkpt>
      <trkpt lat="59.320597" lon="18.071447">
        <ele>30</ele>
        <time>2019-11-20T06:43:36Z</time>
      </trkpt>
      <trkpt lat="59.320625" lon="18.07145">
        <ele>30</ele>
        <time>2019-11-20T06:43:37Z</time>
      </trkpt>
      <trkpt lat="59.320654" lon="18.071457">
        <ele>30</ele>
        <time>2019-11-20T06:43:38Z</time>
      </trkpt>
      <trkpt lat="59.320683" lon="18.071468">
        <ele>30</ele>
        <time>2019-11-20T06:43:39Z</time>
      </trkpt>
      <trkpt lat="59.320712" lon="18.071481">
        <ele>29</ele>
        <time>2019-11-20T06:43:40Z</time>
      </trkpt>
      <trkpt lat="59.32074" lon="18.071499">
        <ele>29</ele>
        <time>2019-11-20T06:43:41Z</time>
      </trkpt>
      <trkpt lat="59.320767" lon="18.071525">
        <ele>29</ele>
        <time>2019-11-20T06:43:42Z</time>
      </trkpt>
      <trkpt lat="59.320791" lon="18.071561">
        <ele>29</ele>
        <time>2019-11-20T06:43:43Z</time>
      </trkpt>
      <trkpt lat="59.320812" lon="18.071609">
        <ele>28</ele>
        <time>2019-11-20T06:43:44Z</time>
      </trkpt>
      <trkpt lat="59.320829" lon="18.071664">
        <ele>28</ele>
        <time>2019-11-20T06:43:45Z</time>
      </trkpt>
      <trkpt lat="59.320845" lon="18.071718">
        <ele>28</ele>
        <time>2019-11-20T06:43:46Z</time>
      </trkpt>
      <trkpt lat="59.320861" lon="18.071779">
        <ele>28</ele>
        <time>2019-11-20T06:43:47Z</time>
      </trkpt>
      <trkpt lat="59.320875" lon="18.071839">
        <ele>28</ele>
        <time>2019-11-20T06:43:48Z</time>
      </trkpt>
      <trkpt lat="59.320889" lon="18.071897">
        <ele>27</ele>
        <time>2019-11-20T06:43:49Z</time>
      </trkpt>
      <trkpt lat="59.320902" lon="18.071953">
        <ele>27</ele>
        <time>2019-11-20T06:43:50Z</time>
      </trkpt>
      <trkpt lat="59.320917" lon="18.072009">
        <ele>27</ele>
        <time>2019-11-20T06:43:51Z</time>
      </trkpt>
      <trkpt lat="59.320933" lon="18.07206">
        <ele>27</ele>
        <time>2019-11-20T06:43:52Z</time>
      </trkpt>
      <trkpt lat="59.320952" lon="18.072102">
        <ele>26</ele>
        <time>2019-11-20T06:43:53Z</time>
      </trkpt>
      <trkpt lat="59.320974" lon="18.07214">
        <ele>26</ele>
        <time>2019-11-20T06:43:54Z</time>
      </trkpt>
      <trkpt lat="59.320999" lon="18.072176">
        <ele>26</ele>
        <time>2019-11-20T06:43:55Z</time>
      </trkpt>
      <trkpt lat="59.321025" lon="18.072203">
        <ele>26</ele>
        <time>2019-11-20T06:43:56Z</time>
      </trkpt>
      <trkpt lat="59.321053" lon="18.072226">
        <ele>25</ele>
        <time>2019-11-20T06:43:57Z</time>
      </trkpt>
      <trkpt lat="59.321082" lon="18.072245">
        <ele>25</ele>
        <time>2019-11-20T06:43:58Z</time>
      </trkpt>
      <trkpt lat="59.321111" lon="18.072264">
        <ele>25</ele>
        <time>2019-11-20T06:43:59Z</time>
      </trkpt>
      <trkpt lat="59.321139" lon="18.072284">
        <ele>25</ele>
        <time>2019-11-20T06:44:00Z</time>
      </trkpt>
      <trkpt lat="59.321167" lon="18.072305">
        <ele>25</ele>
        <time>2019-11-20T06:44:01Z</time>
      </trkpt>
      <trkpt lat="59.321195" lon="18.072325">
        <ele>24</ele>
        <time>2019-11-20T06:44:02Z</time>
      </trkpt>
      <trkpt lat="59.321225" lon="18.072346">
        <ele>24</ele>
        <time>2019-11-20T06:44:03Z</time>
      </trkpt>
      <trkpt lat="59.321254" lon="18.072365">
        <ele>24</ele>
        <time>2019-11-20T06:44:04Z</time>
      </trkpt>
      <trkpt lat="59.321284" lon="18.072385">
        <ele>24</ele>
        <time>2019-11-20T06:44:05Z</time>
      </trkpt>
      <trkpt lat="59.321311" lon="18.072399">
        <ele>24</ele>
        <time>2019-11-20T06:44:06Z</time>
      </trkpt>
      <trkpt lat="59.321341" lon="18.072416">
        <ele>23</ele>
        <time>2019-11-20T06:44:07Z</time>
      </trkpt>
      <trkpt lat="59.321368" lon="18.072436">
        <ele>23</ele>
        <time>2019-11-20T06:44:09Z</time>
      </trkpt>
      <trkpt lat="59.321396" lon="18.072457">
        <ele>23</ele>
        <time>2019-11-20T06:44:09Z</time>
      </trkpt>
      <trkpt lat="59.321423" lon="18.072479">
        <ele>23</ele>
        <time>2019-11-20T06:44:10Z</time>
      </trkpt>
      <trkpt lat="59.321452" lon="18.0725">
        <ele>22</ele>
        <time>2019-11-20T06:44:11Z</time>
      </trkpt>
      <trkpt lat="59.321481" lon="18.072524">
        <ele>22</ele>
        <time>2019-11-20T06:44:12Z</time>
      </trkpt>
      <trkpt lat="59.321508" lon="18.072544">
        <ele>21</ele>
        <time>2019-11-20T06:44:13Z</time>
      </trkpt>
      <trkpt lat="59.321533" lon="18.072563">
        <ele>21</ele>
        <time>2019-11-20T06:44:14Z</time>
      </trkpt>
      <trkpt lat="59.32156" lon="18.072583">
        <ele>21</ele>
        <time>2019-11-20T06:44:15Z</time>
      </trkpt>
      <trkpt lat="59.321589" lon="18.072603">
        <ele>20</ele>
        <time>2019-11-20T06:44:16Z</time>
      </trkpt>
      <trkpt lat="59.321615" lon="18.072623">
        <ele>20</ele>
        <time>2019-11-20T06:44:17Z</time>
      </trkpt>
      <trkpt lat="59.321642" lon="18.072646">
        <ele>19</ele>
        <time>2019-11-20T06:44:18Z</time>
      </trkpt>
      <trkpt lat="59.321666" lon="18.072666">
        <ele>19</ele>
        <time>2019-11-20T06:44:19Z</time>
      </trkpt>
      <trkpt lat="59.321694" lon="18.072678">
        <ele>19</ele>
        <time>2019-11-20T06:44:20Z</time>
      </trkpt>
      <trkpt lat="59.321724" lon="18.072691">
        <ele>19</ele>
        <time>2019-11-20T06:44:21Z</time>
      </trkpt>
      <trkpt lat="59.321752" lon="18.072712">
        <ele>18</ele>
        <time>2019-11-20T06:44:22Z</time>
      </trkpt>
      <trkpt lat="59.32178" lon="18.072738">
        <ele>18</ele>
        <time>2019-11-20T06:44:23Z</time>
      </trkpt>
      <trkpt lat="59.321808" lon="18.072756">
        <ele>18</ele>
        <time>2019-11-20T06:44:24Z</time>
      </trkpt>
      <trkpt lat="59.321837" lon="18.072767">
        <ele>18</ele>
        <time>2019-11-20T06:44:25Z</time>
      </trkpt>
      <trkpt lat="59.321867" lon="18.072781">
        <ele>18</ele>
        <time>2019-11-20T06:44:26Z</time>
      </trkpt>
      <trkpt lat="59.321897" lon="18.072801">
        <ele>17</ele>
        <time>2019-11-20T06:44:28Z</time>
      </trkpt>
      <trkpt lat="59.321924" lon="18.072825">
        <ele>17</ele>
        <time>2019-11-20T06:44:28Z</time>
      </trkpt>
      <trkpt lat="59.32195" lon="18.072848">
        <ele>17</ele>
        <time>2019-11-20T06:44:29Z</time>
      </trkpt>
      <trkpt lat="59.321975" lon="18.072871">
        <ele>17</ele>
        <time>2019-11-20T06:44:30Z</time>
      </trkpt>
      <trkpt lat="59.321995" lon="18.0729">
        <ele>17</ele>
        <time>2019-11-20T06:44:31Z</time>
      </trkpt>
      <trkpt lat="59.322006" lon="18.07293">
        <ele>17</ele>
        <time>2019-11-20T06:44:32Z</time>
      </trkpt>
      <trkpt lat="59.32201" lon="18.072964">
        <ele>17</ele>
        <time>2019-11-20T06:44:33Z</time>
      </trkpt>
      <trkpt lat="59.322008" lon="18.073007">
        <ele>18</ele>
        <time>2019-11-20T06:44:34Z</time>
      </trkpt>
      <trkpt lat="59.321996" lon="18.073054">
        <ele>18</ele>
        <time>2019-11-20T06:44:35Z</time>
      </trkpt>
      <trkpt lat="59.321982" lon="18.073103">
        <ele>18</ele>
        <time>2019-11-20T06:44:36Z</time>
      </trkpt>
      <trkpt lat="59.321974" lon="18.073153">
        <ele>18</ele>
        <time>2019-11-20T06:44:37Z</time>
      </trkpt>
      <trkpt lat="59.321962" lon="18.073202">
        <ele>17</ele>
        <time>2019-11-20T06:44:38Z</time>
      </trkpt>
      <trkpt lat="59.321955" lon="18.073256">
        <ele>17</ele>
        <time>2019-11-20T06:44:39Z</time>
      </trkpt>
      <trkpt lat="59.321945" lon="18.073304">
        <ele>17</ele>
        <time>2019-11-20T06:44:40Z</time>
      </trkpt>
      <trkpt lat="59.321938" lon="18.07336">
        <ele>16</ele>
        <time>2019-11-20T06:44:41Z</time>
      </trkpt>
      <trkpt lat="59.321926" lon="18.07341">
        <ele>16</ele>
        <time>2019-11-20T06:44:42Z</time>
      </trkpt>
      <trkpt lat="59.321915" lon="18.073459">
        <ele>16</ele>
        <time>2019-11-20T06:44:43Z</time>
      </trkpt>
      <trkpt lat="59.321906" lon="18.073518">
        <ele>16</ele>
        <time>2019-11-20T06:44:44Z</time>
      </trkpt>
      <trkpt lat="59.321899" lon="18.073568">
        <ele>16</ele>
        <time>2019-11-20T06:44:45Z</time>
      </trkpt>
      <trkpt lat="59.321891" lon="18.073611">
        <ele>16</ele>
        <time>2019-11-20T06:44:47Z</time>
      </trkpt>
      <trkpt lat="59.321891" lon="18.073664">
        <ele>16</ele>
        <time>2019-11-20T06:44:47Z</time>
      </trkpt>
      <trkpt lat="59.321898" lon="18.073715">
        <ele>16</ele>
        <time>2019-11-20T06:44:48Z</time>
      </trkpt>
      <trkpt lat="59.321915" lon="18.073769">
        <ele>16</ele>
        <time>2019-11-20T06:44:49Z</time>
      </trkpt>
      <trkpt lat="59.321943" lon="18.073818">
        <ele>15</ele>
        <time>2019-11-20T06:44:50Z</time>
      </trkpt>
      <trkpt lat="59.321965" lon="18.073866">
        <ele>15</ele>
        <time>2019-11-20T06:44:51Z</time>
      </trkpt>
      <trkpt lat="59.321987" lon="18.073899">
        <ele>15</ele>
        <time>2019-11-20T06:44:52Z</time>
      </trkpt>
      <trkpt lat="59.322012" lon="18.073925">
        <ele>15</ele>
        <time>2019-11-20T06:44:53Z</time>
      </trkpt>
      <trkpt lat="59.322043" lon="18.073933">
        <ele>14</ele>
        <time>2019-11-20T06:44:54Z</time>
      </trkpt>
      <trkpt lat="59.322068" lon="18.073959">
        <ele>14</ele>
        <time>2019-11-20T06:44:55Z</time>
      </trkpt>
      <trkpt lat="59.322095" lon="18.073993">
        <ele>14</ele>
        <time>2019-11-20T06:44:56Z</time>
      </trkpt>
      <trkpt lat="59.32212" lon="18.074028">
        <ele>14</ele>
        <time>2019-11-20T06:44:57Z</time>
      </trkpt>
      <trkpt lat="59.322149" lon="18.074057">
        <ele>14</ele>
        <time>2019-11-20T06:44:58Z</time>
      </trkpt>
      <trkpt lat="59.322176" lon="18.074089">
        <ele>14</ele>
        <time>2019-11-20T06:44:59Z</time>
      </trkpt>
      <trkpt lat="59.322204" lon="18.074113">
        <ele>13</ele>
        <time>2019-11-20T06:45:01Z</time>
      </trkpt>
      <trkpt lat="59.322235" lon="18.074134">
        <ele>13</ele>
        <time>2019-11-20T06:45:01Z</time>
      </trkpt>
      <trkpt lat="59.322262" lon="18.074169">
        <ele>13</ele>
        <time>2019-11-20T06:45:02Z</time>
      </trkpt>
      <trkpt lat="59.322285" lon="18.074209">
        <ele>13</ele>
        <time>2019-11-20T06:45:03Z</time>
      </trkpt>
      <trkpt lat="59.32231" lon="18.074247">
        <ele>13</ele>
        <time>2019-11-20T06:45:04Z</time>
      </trkpt>
      <trkpt lat="59.32234" lon="18.074273">
        <ele>13</ele>
        <time>2019-11-20T06:45:05Z</time>
      </trkpt>
      <trkpt lat="59.322378" lon="18.074277">
        <ele>13</ele>
        <time>2019-11-20T06:45:06Z</time>
      </trkpt>
      <trkpt lat="59.322407" lon="18.074287">
        <ele>13</ele>
        <time>2019-11-20T06:45:07Z</time>
      </trkpt>
      <trkpt lat="59.32243" lon="18.074312">
        <ele>13</ele>
        <time>2019-11-20T06:45:08Z</time>
      </trkpt>
      <trkpt lat="59.322457" lon="18.074338">
        <ele>12</ele>
        <time>2019-11-20T06:45:09Z</time>
      </trkpt>
      <trkpt lat="59.322484" lon="18.074359">
        <ele>12</ele>
        <time>2019-11-20T06:45:10Z</time>
      </trkpt>
      <trkpt lat="59.322516" lon="18.074372">
        <ele>12</ele>
        <time>2019-11-20T06:45:11Z</time>
      </trkpt>
      <trkpt lat="59.322546" lon="18.074385">
        <ele>12</ele>
        <time>2019-11-20T06:45:12Z</time>
      </trkpt>
      <trkpt lat="59.322575" lon="18.074401">
        <ele>12</ele>
        <time>2019-11-20T06:45:13Z</time>
      </trkpt>
      <trkpt lat="59.322602" lon="18.074428">
        <ele>12</ele>
        <time>2019-11-20T06:45:14Z</time>
      </trkpt>
      <trkpt lat="59.322634" lon="18.074453">
        <ele>12</ele>
        <time>2019-11-20T06:45:15Z</time>
      </trkpt>
      <trkpt lat="59.322657" lon="18.07449">
        <ele>12</ele>
        <time>2019-11-20T06:45:16Z</time>
      </trkpt>
      <trkpt lat="59.322673" lon="18.07454">
        <ele>12</ele>
        <time>2019-11-20T06:45:17Z</time>
      </trkpt>
      <trkpt lat="59.322691" lon="18.074583">
        <ele>12</ele>
        <time>2019-11-20T06:45:18Z</time>
      </trkpt>
      <trkpt lat="59.322714" lon="18.074619">
        <ele>12</ele>
        <time>2019-11-20T06:45:19Z</time>
      </trkpt>
      <trkpt lat="59.322743" lon="18.07465">
        <ele>12</ele>
        <time>2019-11-20T06:45:20Z</time>
      </trkpt>
      <trkpt lat="59.322769" lon="18.074682">
        <ele>12</ele>
        <time>2019-11-20T06:45:21Z</time>
      </trkpt>
      <trkpt lat="59.322799" lon="18.074712">
        <ele>12</ele>
        <time>2019-11-20T06:45:22Z</time>
      </trkpt>
      <trkpt lat="59.322883" lon="18.074787">
        <ele>12</ele>
        <time>2019-11-20T06:45:25Z</time>
      </trkpt>
      <trkpt lat="59.32291" lon="18.074811">
        <ele>11</ele>
        <time>2019-11-20T06:45:26Z</time>
      </trkpt>
      <trkpt lat="59.322938" lon="18.074831">
        <ele>11</ele>
        <time>2019-11-20T06:45:27Z</time>
      </trkpt>
      <trkpt lat="59.323008" lon="18.074909">
        <ele>12</ele>
        <time>2019-11-20T06:45:30Z</time>
      </trkpt>
      <trkpt lat="59.323034" lon="18.07495">
        <ele>12</ele>
        <time>2019-11-20T06:45:31Z</time>
      </trkpt>
      <trkpt lat="59.323063" lon="18.074995">
        <ele>12</ele>
        <time>2019-11-20T06:45:32Z</time>
      </trkpt>
      <trkpt lat="59.323155" lon="18.075089">
        <ele>12</ele>
        <time>2019-11-20T06:45:37Z</time>
      </trkpt>
      <trkpt lat="59.323252" lon="18.075129">
        <ele>12</ele>
        <time>2019-11-20T06:45:39Z</time>
      </trkpt>
      <trkpt lat="59.323343" lon="18.07508">
        <ele>11</ele>
        <time>2019-11-20T06:45:42Z</time>
      </trkpt>
      <trkpt lat="59.323451" lon="18.075155">
        <ele>11</ele>
        <time>2019-11-20T06:45:46Z</time>
      </trkpt>
      <trkpt lat="59.323537" lon="18.075218">
        <ele>12</ele>
        <time>2019-11-20T06:45:49Z</time>
      </trkpt>
      <trkpt lat="59.323624" lon="18.075173">
        <ele>11</ele>
        <time>2019-11-20T06:45:52Z</time>
      </trkpt>
      <trkpt lat="59.323651" lon="18.075184">
        <ele>11</ele>
        <time>2019-11-20T06:45:53Z</time>
      </trkpt>
      <trkpt lat="59.323676" lon="18.075199">
        <ele>11</ele>
        <time>2019-11-20T06:45:54Z</time>
      </trkpt>
      <trkpt lat="59.323702" lon="18.075219">
        <ele>11</ele>
        <time>2019-11-20T06:45:55Z</time>
      </trkpt>
      <trkpt lat="59.323728" lon="18.075242">
        <ele>11</ele>
        <time>2019-11-20T06:45:56Z</time>
      </trkpt>
      <trkpt lat="59.323755" lon="18.075273">
        <ele>11</ele>
        <time>2019-11-20T06:45:57Z</time>
      </trkpt>
      <trkpt lat="59.323857" lon="18.075336">
        <ele>11</ele>
        <time>2019-11-20T06:46:01Z</time>
      </trkpt>
      <trkpt lat="59.323918" lon="18.07533">
        <ele>11</ele>
        <time>2019-11-20T06:46:03Z</time>
      </trkpt>
      <trkpt lat="59.323949" lon="18.07534">
        <ele>11</ele>
        <time>2019-11-20T06:46:04Z</time>
      </trkpt>
      <trkpt lat="59.323978" lon="18.075356">
        <ele>11</ele>
        <time>2019-11-20T06:46:05Z</time>
      </trkpt>
      <trkpt lat="59.324002" lon="18.075368">
        <ele>11</ele>
        <time>2019-11-20T06:46:06Z</time>
      </trkpt>
      <trkpt lat="59.324029" lon="18.075376">
        <ele>11</ele>
        <time>2019-11-20T06:46:07Z</time>
      </trkpt>
      <trkpt lat="59.324057" lon="18.0754">
        <ele>11</ele>
        <time>2019-11-20T06:46:08Z</time>
      </trkpt>
      <trkpt lat="59.324094" lon="18.075377">
        <ele>11</ele>
        <time>2019-11-20T06:46:09Z</time>
      </trkpt>
      <trkpt lat="59.324124" lon="18.075378">
        <ele>11</ele>
        <time>2019-11-20T06:46:10Z</time>
      </trkpt>
      <trkpt lat="59.32415" lon="18.075393">
        <ele>11</ele>
        <time>2019-11-20T06:46:11Z</time>
      </trkpt>
      <trkpt lat="59.324175" lon="18.075408">
        <ele>11</ele>
        <time>2019-11-20T06:46:12Z</time>
      </trkpt>
      <trkpt lat="59.324198" lon="18.075422">
        <ele>11</ele>
        <time>2019-11-20T06:46:13Z</time>
      </trkpt>
      <trkpt lat="59.324305" lon="18.075393">
        <ele>10</ele>
        <time>2019-11-20T06:46:16Z</time>
      </trkpt>
      <trkpt lat="59.324403" lon="18.075407">
        <ele>10</ele>
        <time>2019-11-20T06:46:19Z</time>
      </trkpt>
      <trkpt lat="59.324428" lon="18.07542">
        <ele>10</ele>
        <time>2019-11-20T06:46:20Z</time>
      </trkpt>
      <trkpt lat="59.324522" lon="18.075421">
        <ele>10</ele>
        <time>2019-11-20T06:46:24Z</time>
      </trkpt>
      <trkpt lat="59.324578" lon="18.075423">
        <ele>10</ele>
        <time>2019-11-20T06:46:25Z</time>
      </trkpt>
      <trkpt lat="59.324606" lon="18.075438">
        <ele>10</ele>
        <time>2019-11-20T06:46:26Z</time>
      </trkpt>
      <trkpt lat="59.32471" lon="18.075442">
        <ele>9</ele>
        <time>2019-11-20T06:46:30Z</time>
      </trkpt>
      <trkpt lat="59.324734" lon="18.075455">
        <ele>9</ele>
        <time>2019-11-20T06:46:31Z</time>
      </trkpt>
      <trkpt lat="59.324759" lon="18.075465">
        <ele>9</ele>
        <time>2019-11-20T06:46:32Z</time>
      </trkpt>
      <trkpt lat="59.324783" lon="18.075469">
        <ele>9</ele>
        <time>2019-11-20T06:46:33Z</time>
      </trkpt>
      <trkpt lat="59.324811" lon="18.075478">
        <ele>9</ele>
        <time>2019-11-20T06:46:34Z</time>
      </trkpt>
      <trkpt lat="59.324842" lon="18.075492">
        <ele>9</ele>
        <time>2019-11-20T06:46:35Z</time>
      </trkpt>
      <trkpt lat="59.324874" lon="18.075485">
        <ele>10</ele>
        <time>2019-11-20T06:46:36Z</time>
      </trkpt>
      <trkpt lat="59.32494" lon="18.075538">
        <ele>10</ele>
        <time>2019-11-20T06:46:38Z</time>
      </trkpt>
      <trkpt lat="59.324972" lon="18.075543">
        <ele>10</ele>
        <time>2019-11-20T06:46:39Z</time>
      </trkpt>
      <trkpt lat="59.324997" lon="18.075545">
        <ele>10</ele>
        <time>2019-11-20T06:46:41Z</time>
      </trkpt>
      <trkpt lat="59.325022" lon="18.075539">
        <ele>10</ele>
        <time>2019-11-20T06:46:42Z</time>
      </trkpt>
      <trkpt lat="59.325048" lon="18.075537">
        <ele>11</ele>
        <time>2019-11-20T06:46:42Z</time>
      </trkpt>
      <trkpt lat="59.325078" lon="18.075532">
        <ele>11</ele>
        <time>2019-11-20T06:46:43Z</time>
      </trkpt>
      <trkpt lat="59.325146" lon="18.075505">
        <ele>10</ele>
        <time>2019-11-20T06:46:45Z</time>
      </trkpt>
      <trkpt lat="59.325174" lon="18.075504">
        <ele>10</ele>
        <time>2019-11-20T06:46:46Z</time>
      </trkpt>
      <trkpt lat="59.325197" lon="18.075498">
        <ele>10</ele>
        <time>2019-11-20T06:46:47Z</time>
      </trkpt>
      <trkpt lat="59.32522" lon="18.07549">
        <ele>9</ele>
        <time>2019-11-20T06:46:48Z</time>
      </trkpt>
      <trkpt lat="59.325274" lon="18.07548">
        <ele>10</ele>
        <time>2019-11-20T06:46:50Z</time>
      </trkpt>
      <trkpt lat="59.325303" lon="18.075477">
        <ele>9</ele>
        <time>2019-11-20T06:46:51Z</time>
      </trkpt>
      <trkpt lat="59.325332" lon="18.075465">
        <ele>9</ele>
        <time>2019-11-20T06:46:52Z</time>
      </trkpt>
      <trkpt lat="59.325362" lon="18.075455">
        <ele>9</ele>
        <time>2019-11-20T06:46:53Z</time>
      </trkpt>
      <trkpt lat="59.325397" lon="18.075445">
        <ele>9</ele>
        <time>2019-11-20T06:46:54Z</time>
      </trkpt>
      <trkpt lat="59.325512" lon="18.075413">
        <ele>9</ele>
        <time>2019-11-20T06:46:59Z</time>
      </trkpt>
      <trkpt lat="59.325622" lon="18.075426">
        <ele>9</ele>
        <time>2019-11-20T06:47:01Z</time>
      </trkpt>
      <trkpt lat="59.325656" lon="18.07541">
        <ele>9</ele>
        <time>2019-11-20T06:47:02Z</time>
      </trkpt>
      <trkpt lat="59.325695" lon="18.075399">
        <ele>8</ele>
        <time>2019-11-20T06:47:03Z</time>
      </trkpt>
      <trkpt lat="59.325726" lon="18.0754">
        <ele>8</ele>
        <time>2019-11-20T06:47:04Z</time>
      </trkpt>
      <trkpt lat="59.325761" lon="18.075401">
        <ele>8</ele>
        <time>2019-11-20T06:47:05Z</time>
      </trkpt>
      <trkpt lat="59.325794" lon="18.075401">
        <ele>8</ele>
        <time>2019-11-20T06:47:06Z</time>
      </trkpt>
      <trkpt lat="59.325827" lon="18.075396">
        <ele>8</ele>
        <time>2019-11-20T06:47:07Z</time>
      </trkpt>
      <trkpt lat="59.325855" lon="18.075383">
        <ele>8</ele>
        <time>2019-11-20T06:47:08Z</time>
      </trkpt>
      <trkpt lat="59.325883" lon="18.075364">
        <ele>8</ele>
        <time>2019-11-20T06:47:09Z</time>
      </trkpt>
      <trkpt lat="59.325908" lon="18.075339">
        <ele>8</ele>
        <time>2019-11-20T06:47:10Z</time>
      </trkpt>
      <trkpt lat="59.325929" lon="18.075314">
        <ele>7</ele>
        <time>2019-11-20T06:47:11Z</time>
      </trkpt>
      <trkpt lat="59.325951" lon="18.075281">
        <ele>7</ele>
        <time>2019-11-20T06:47:12Z</time>
      </trkpt>
      <trkpt lat="59.325974" lon="18.075253">
        <ele>7</ele>
        <time>2019-11-20T06:47:13Z</time>
      </trkpt>
      <trkpt lat="59.325997" lon="18.075224">
        <ele>8</ele>
        <time>2019-11-20T06:47:14Z</time>
      </trkpt>
      <trkpt lat="59.326018" lon="18.075195">
        <ele>8</ele>
        <time>2019-11-20T06:47:15Z</time>
      </trkpt>
      <trkpt lat="59.326041" lon="18.075172">
        <ele>8</ele>
        <time>2019-11-20T06:47:16Z</time>
      </trkpt>
      <trkpt lat="59.326062" lon="18.075153">
        <ele>8</ele>
        <time>2019-11-20T06:47:17Z</time>
      </trkpt>
      <trkpt lat="59.32609" lon="18.075155">
        <ele>8</ele>
        <time>2019-11-20T06:47:18Z</time>
      </trkpt>
      <trkpt lat="59.326119" lon="18.075164">
        <ele>8</ele>
        <time>2019-11-20T06:47:19Z</time>
      </trkpt>
      <trkpt lat="59.326149" lon="18.075173">
        <ele>8</ele>
        <time>2019-11-20T06:47:20Z</time>
      </trkpt>
      <trkpt lat="59.326176" lon="18.075172">
        <ele>7</ele>
        <time>2019-11-20T06:47:21Z</time>
      </trkpt>
      <trkpt lat="59.326199" lon="18.075156">
        <ele>7</ele>
        <time>2019-11-20T06:47:22Z</time>
      </trkpt>
      <trkpt lat="59.326222" lon="18.075127">
        <ele>7</ele>
        <time>2019-11-20T06:47:23Z</time>
      </trkpt>
      <trkpt lat="59.326243" lon="18.075094">
        <ele>7</ele>
        <time>2019-11-20T06:47:24Z</time>
      </trkpt>
      <trkpt lat="59.326262" lon="18.07506">
        <ele>7</ele>
        <time>2019-11-20T06:47:25Z</time>
      </trkpt>
      <trkpt lat="59.326285" lon="18.075026">
        <ele>7</ele>
        <time>2019-11-20T06:47:26Z</time>
      </trkpt>
      <trkpt lat="59.326308" lon="18.074992">
        <ele>7</ele>
        <time>2019-11-20T06:47:27Z</time>
      </trkpt>
      <trkpt lat="59.326333" lon="18.074962">
        <ele>7</ele>
        <time>2019-11-20T06:47:28Z</time>
      </trkpt>
      <trkpt lat="59.326356" lon="18.074932">
        <ele>7</ele>
        <time>2019-11-20T06:47:29Z</time>
      </trkpt>
      <trkpt lat="59.326381" lon="18.074903">
        <ele>7</ele>
        <time>2019-11-20T06:47:30Z</time>
      </trkpt>
      <trkpt lat="59.326407" lon="18.074876">
        <ele>7</ele>
        <time>2019-11-20T06:47:31Z</time>
      </trkpt>
      <trkpt lat="59.326432" lon="18.074853">
        <ele>7</ele>
        <time>2019-11-20T06:47:32Z</time>
      </trkpt>
      <trkpt lat="59.326456" lon="18.074829">
        <ele>7</ele>
        <time>2019-11-20T06:47:33Z</time>
      </trkpt>
      <trkpt lat="59.326483" lon="18.07481">
        <ele>7</ele>
        <time>2019-11-20T06:47:34Z</time>
      </trkpt>
      <trkpt lat="59.326512" lon="18.074791">
        <ele>7</ele>
        <time>2019-11-20T06:47:35Z</time>
      </trkpt>
      <trkpt lat="59.32654" lon="18.074773">
        <ele>7</ele>
        <time>2019-11-20T06:47:36Z</time>
      </trkpt>
      <trkpt lat="59.326568" lon="18.074756">
        <ele>7</ele>
        <time>2019-11-20T06:47:37Z</time>
      </trkpt>
      <trkpt lat="59.326597" lon="18.074735">
        <ele>7</ele>
        <time>2019-11-20T06:47:38Z</time>
      </trkpt>
      <trkpt lat="59.326625" lon="18.074719">
        <ele>8</ele>
        <time>2019-11-20T06:47:39Z</time>
      </trkpt>
      <trkpt lat="59.326651" lon="18.074702">
        <ele>8</ele>
        <time>2019-11-20T06:47:40Z</time>
      </trkpt>
      <trkpt lat="59.326677" lon="18.074683">
        <ele>8</ele>
        <time>2019-11-20T06:47:42Z</time>
      </trkpt>
      <trkpt lat="59.326704" lon="18.074661">
        <ele>8</ele>
        <time>2019-11-20T06:47:42Z</time>
      </trkpt>
      <trkpt lat="59.326733" lon="18.07464">
        <ele>8</ele>
        <time>2019-11-20T06:47:43Z</time>
      </trkpt>
      <trkpt lat="59.326761" lon="18.074621">
        <ele>8</ele>
        <time>2019-11-20T06:47:44Z</time>
      </trkpt>
      <trkpt lat="59.326786" lon="18.074599">
        <ele>8</ele>
        <time>2019-11-20T06:47:45Z</time>
      </trkpt>
      <trkpt lat="59.326813" lon="18.074581">
        <ele>9</ele>
        <time>2019-11-20T06:47:46Z</time>
      </trkpt>
      <trkpt lat="59.326839" lon="18.074561">
        <ele>8</ele>
        <time>2019-11-20T06:47:47Z</time>
      </trkpt>
      <trkpt lat="59.326864" lon="18.074539">
        <ele>9</ele>
        <time>2019-11-20T06:47:48Z</time>
      </trkpt>
      <trkpt lat="59.32689" lon="18.074515">
        <ele>9</ele>
        <time>2019-11-20T06:47:49Z</time>
      </trkpt>
      <trkpt lat="59.326915" lon="18.074487">
        <ele>9</ele>
        <time>2019-11-20T06:47:50Z</time>
      </trkpt>
      <trkpt lat="59.326938" lon="18.074457">
        <ele>9</ele>
        <time>2019-11-20T06:47:51Z</time>
      </trkpt>
      <trkpt lat="59.32696" lon="18.074421">
        <ele>9</ele>
        <time>2019-11-20T06:47:52Z</time>
      </trkpt>
      <trkpt lat="59.32698" lon="18.074388">
        <ele>9</ele>
        <time>2019-11-20T06:47:53Z</time>
      </trkpt>
      <trkpt lat="59.327004" lon="18.074355">
        <ele>9</ele>
        <time>2019-11-20T06:47:54Z</time>
      </trkpt>
      <trkpt lat="59.32703" lon="18.074326">
        <ele>9</ele>
        <time>2019-11-20T06:47:55Z</time>
      </trkpt>
      <trkpt lat="59.327055" lon="18.074299">
        <ele>9</ele>
        <time>2019-11-20T06:47:57Z</time>
      </trkpt>
      <trkpt lat="59.327104" lon="18.074239">
        <ele>9</ele>
        <time>2019-11-20T06:47:58Z</time>
      </trkpt>
      <trkpt lat="59.327128" lon="18.074207">
        <ele>10</ele>
        <time>2019-11-20T06:47:59Z</time>
      </trkpt>
      <trkpt lat="59.327152" lon="18.074173">
        <ele>10</ele>
        <time>2019-11-20T06:48:00Z</time>
      </trkpt>
      <trkpt lat="59.327177" lon="18.074143">
        <ele>10</ele>
        <time>2019-11-20T06:48:01Z</time>
      </trkpt>
      <trkpt lat="59.3272" lon="18.074111">
        <ele>10</ele>
        <time>2019-11-20T06:48:02Z</time>
      </trkpt>
      <trkpt lat="59.327225" lon="18.074082">
        <ele>10</ele>
        <time>2019-11-20T06:48:03Z</time>
      </trkpt>
      <trkpt lat="59.32725" lon="18.074052">
        <ele>10</ele>
        <time>2019-11-20T06:48:04Z</time>
      </trkpt>
      <trkpt lat="59.327274" lon="18.074019">
        <ele>10</ele>
        <time>2019-11-20T06:48:05Z</time>
      </trkpt>
      <trkpt lat="59.327297" lon="18.073989">
        <ele>10</ele>
        <time>2019-11-20T06:48:06Z</time>
      </trkpt>
      <trkpt lat="59.327321" lon="18.073962">
        <ele>10</ele>
        <time>2019-11-20T06:48:07Z</time>
      </trkpt>
      <trkpt lat="59.327347" lon="18.073933">
        <ele>10</ele>
        <time>2019-11-20T06:48:08Z</time>
      </trkpt>
      <trkpt lat="59.327372" lon="18.073904">
        <ele>10</ele>
        <time>2019-11-20T06:48:09Z</time>
      </trkpt>
      <trkpt lat="59.327397" lon="18.073871">
        <ele>10</ele>
        <time>2019-11-20T06:48:10Z</time>
      </trkpt>
      <trkpt lat="59.327421" lon="18.073841">
        <ele>10</ele>
        <time>2019-11-20T06:48:11Z</time>
      </trkpt>
      <trkpt lat="59.327446" lon="18.073814">
        <ele>10</ele>
        <time>2019-11-20T06:48:12Z</time>
      </trkpt>
      <trkpt lat="59.32747" lon="18.073789">
        <ele>9</ele>
        <time>2019-11-20T06:48:13Z</time>
      </trkpt>
      <trkpt lat="59.327496" lon="18.073763">
        <ele>9</ele>
        <time>2019-11-20T06:48:14Z</time>
      </trkpt>
      <trkpt lat="59.327521" lon="18.073733">
        <ele>9</ele>
        <time>2019-11-20T06:48:15Z</time>
      </trkpt>
      <trkpt lat="59.327545" lon="18.073705">
        <ele>9</ele>
        <time>2019-11-20T06:48:16Z</time>
      </trkpt>
      <trkpt lat="59.32757" lon="18.07368">
        <ele>9</ele>
        <time>2019-11-20T06:48:17Z</time>
      </trkpt>
      <trkpt lat="59.327594" lon="18.073648">
        <ele>9</ele>
        <time>2019-11-20T06:48:18Z</time>
      </trkpt>
      <trkpt lat="59.327615" lon="18.073612">
        <ele>9</ele>
        <time>2019-11-20T06:48:19Z</time>
      </trkpt>
      <trkpt lat="59.327635" lon="18.073578">
        <ele>9</ele>
        <time>2019-11-20T06:48:20Z</time>
      </trkpt>
      <trkpt lat="59.327659" lon="18.073551">
        <ele>9</ele>
        <time>2019-11-20T06:48:21Z</time>
      </trkpt>
      <trkpt lat="59.327683" lon="18.073526">
        <ele>9</ele>
        <time>2019-11-20T06:48:22Z</time>
      </trkpt>
      <trkpt lat="59.327707" lon="18.073499">
        <ele>9</ele>
        <time>2019-11-20T06:48:23Z</time>
      </trkpt>
      <trkpt lat="59.327732" lon="18.073474">
        <ele>9</ele>
        <time>2019-11-20T06:48:24Z</time>
      </trkpt>
      <trkpt lat="59.327756" lon="18.073449">
        <ele>9</ele>
        <time>2019-11-20T06:48:25Z</time>
      </trkpt>
      <trkpt lat="59.327782" lon="18.073421">
        <ele>9</ele>
        <time>2019-11-20T06:48:26Z</time>
      </trkpt>
      <trkpt lat="59.327807" lon="18.073396">
        <ele>9</ele>
        <time>2019-11-20T06:48:27Z</time>
      </trkpt>
      <trkpt lat="59.327831" lon="18.073369">
        <ele>9</ele>
        <time>2019-11-20T06:48:28Z</time>
      </trkpt>
      <trkpt lat="59.327855" lon="18.073342">
        <ele>9</ele>
        <time>2019-11-20T06:48:29Z</time>
      </trkpt>
      <trkpt lat="59.327878" lon="18.073309">
        <ele>9</ele>
        <time>2019-11-20T06:48:30Z</time>
      </trkpt>
      <trkpt lat="59.327903" lon="18.073279">
        <ele>9</ele>
        <time>2019-11-20T06:48:31Z</time>
      </trkpt>
      <trkpt lat="59.327927" lon="18.073254">
        <ele>9</ele>
        <time>2019-11-20T06:48:32Z</time>
      </trkpt>
      <trkpt lat="59.327951" lon="18.073227">
        <ele>9</ele>
        <time>2019-11-20T06:48:33Z</time>
      </trkpt>
      <trkpt lat="59.327974" lon="18.073202">
        <ele>9</ele>
        <time>2019-11-20T06:48:34Z</time>
      </trkpt>
      <trkpt lat="59.327999" lon="18.07318">
        <ele>9</ele>
        <time>2019-11-20T06:48:35Z</time>
      </trkpt>
      <trkpt lat="59.328025" lon="18.073163">
        <ele>9</ele>
        <time>2019-11-20T06:48:36Z</time>
      </trkpt>
      <trkpt lat="59.328051" lon="18.073148">
        <ele>9</ele>
        <time>2019-11-20T06:48:37Z</time>
      </trkpt>
      <trkpt lat="59.328077" lon="18.073138">
        <ele>9</ele>
        <time>2019-11-20T06:48:38Z</time>
      </trkpt>
      <trkpt lat="59.328104" lon="18.073131">
        <ele>9</ele>
        <time>2019-11-20T06:48:39Z</time>
      </trkpt>
      <trkpt lat="59.32813" lon="18.073123">
        <ele>9</ele>
        <time>2019-11-20T06:48:40Z</time>
      </trkpt>
      <trkpt lat="59.328157" lon="18.073113">
        <ele>9</ele>
        <time>2019-11-20T06:48:41Z</time>
      </trkpt>
      <trkpt lat="59.328186" lon="18.073107">
        <ele>9</ele>
        <time>2019-11-20T06:48:42Z</time>
      </trkpt>
      <trkpt lat="59.328214" lon="18.073104">
        <ele>9</ele>
        <time>2019-11-20T06:48:43Z</time>
      </trkpt>
      <trkpt lat="59.328241" lon="18.073106">
        <ele>9</ele>
        <time>2019-11-20T06:48:44Z</time>
      </trkpt>
      <trkpt lat="59.32827" lon="18.07311">
        <ele>9</ele>
        <time>2019-11-20T06:48:45Z</time>
      </trkpt>
      <trkpt lat="59.3283" lon="18.073118">
        <ele>9</ele>
        <time>2019-11-20T06:48:46Z</time>
      </trkpt>
      <trkpt lat="59.328327" lon="18.073126">
        <ele>9</ele>
        <time>2019-11-20T06:48:47Z</time>
      </trkpt>
      <trkpt lat="59.328354" lon="18.073135">
        <ele>9</ele>
        <time>2019-11-20T06:48:48Z</time>
      </trkpt>
      <trkpt lat="59.328382" lon="18.073141">
        <ele>9</ele>
        <time>2019-11-20T06:48:49Z</time>
      </trkpt>
      <trkpt lat="59.328409" lon="18.073147">
        <ele>9</ele>
        <time>2019-11-20T06:48:50Z</time>
      </trkpt>
      <trkpt lat="59.328437" lon="18.073156">
        <ele>9</ele>
        <time>2019-11-20T06:48:51Z</time>
      </trkpt>
      <trkpt lat="59.328466" lon="18.073165">
        <ele>9</ele>
        <time>2019-11-20T06:48:52Z</time>
      </trkpt>
      <trkpt lat="59.328495" lon="18.073172">
        <ele>9</ele>
        <time>2019-11-20T06:48:53Z</time>
      </trkpt>
      <trkpt lat="59.328524" lon="18.073181">
        <ele>9</ele>
        <time>2019-11-20T06:48:54Z</time>
      </trkpt>
      <trkpt lat="59.328553" lon="18.073191">
        <ele>9</ele>
        <time>2019-11-20T06:48:55Z</time>
      </trkpt>
      <trkpt lat="59.328582" lon="18.0732">
        <ele>10</ele>
        <time>2019-11-20T06:48:56Z</time>
      </trkpt>
      <trkpt lat="59.32861" lon="18.073207">
        <ele>10</ele>
        <time>2019-11-20T06:48:57Z</time>
      </trkpt>
      <trkpt lat="59.328639" lon="18.073216">
        <ele>10</ele>
        <time>2019-11-20T06:48:58Z</time>
      </trkpt>
      <trkpt lat="59.328666" lon="18.073227">
        <ele>10</ele>
        <time>2019-11-20T06:48:59Z</time>
      </trkpt>
      <trkpt lat="59.328694" lon="18.073235">
        <ele>10</ele>
        <time>2019-11-20T06:49:00Z</time>
      </trkpt>
      <trkpt lat="59.328723" lon="18.073242">
        <ele>10</ele>
        <time>2019-11-20T06:49:01Z</time>
      </trkpt>
      <trkpt lat="59.328752" lon="18.073248">
        <ele>10</ele>
        <time>2019-11-20T06:49:02Z</time>
      </trkpt>
      <trkpt lat="59.32878" lon="18.073258">
        <ele>10</ele>
        <time>2019-11-20T06:49:03Z</time>
      </trkpt>
      <trkpt lat="59.328808" lon="18.073264">
        <ele>10</ele>
        <time>2019-11-20T06:49:04Z</time>
      </trkpt>
      <trkpt lat="59.328837" lon="18.073268">
        <ele>10</ele>
        <time>2019-11-20T06:49:05Z</time>
      </trkpt>
      <trkpt lat="59.328867" lon="18.073275">
        <ele>10</ele>
        <time>2019-11-20T06:49:06Z</time>
      </trkpt>
      <trkpt lat="59.328896" lon="18.073282">
        <ele>10</ele>
        <time>2019-11-20T06:49:07Z</time>
      </trkpt>
      <trkpt lat="59.328925" lon="18.073287">
        <ele>10</ele>
        <time>2019-11-20T06:49:08Z</time>
      </trkpt>
      <trkpt lat="59.328954" lon="18.073291">
        <ele>10</ele>
        <time>2019-11-20T06:49:09Z</time>
      </trkpt>
      <trkpt lat="59.328981" lon="18.073297">
        <ele>10</ele>
        <time>2019-11-20T06:49:10Z</time>
      </trkpt>
      <trkpt lat="59.329009" lon="18.073304">
        <ele>10</ele>
        <time>2019-11-20T06:49:11Z</time>
      </trkpt>
      <trkpt lat="59.329037" lon="18.07331">
        <ele>10</ele>
        <time>2019-11-20T06:49:12Z</time>
      </trkpt>
      <trkpt lat="59.329064" lon="18.073317">
        <ele>10</ele>
        <time>2019-11-20T06:49:13Z</time>
      </trkpt>
      <trkpt lat="59.329091" lon="18.073321">
        <ele>10</ele>
        <time>2019-11-20T06:49:14Z</time>
      </trkpt>
      <trkpt lat="59.329119" lon="18.073324">
        <ele>10</ele>
        <time>2019-11-20T06:49:15Z</time>
      </trkpt>
      <trkpt lat="59.329147" lon="18.073328">
        <ele>10</ele>
        <time>2019-11-20T06:49:16Z</time>
      </trkpt>
      <trkpt lat="59.329175" lon="18.073334">
        <ele>10</ele>
        <time>2019-11-20T06:49:18Z</time>
      </trkpt>
      <trkpt lat="59.329203" lon="18.073337">
        <ele>10</ele>
        <time>2019-11-20T06:49:18Z</time>
      </trkpt>
      <trkpt lat="59.329232" lon="18.073341">
        <ele>10</ele>
        <time>2019-11-20T06:49:19Z</time>
      </trkpt>
      <trkpt lat="59.32926" lon="18.073349">
        <ele>10</ele>
        <time>2019-11-20T06:49:20Z</time>
      </trkpt>
      <trkpt lat="59.329288" lon="18.073356">
        <ele>10</ele>
        <time>2019-11-20T06:49:21Z</time>
      </trkpt>
      <trkpt lat="59.329317" lon="18.073365">
        <ele>10</ele>
        <time>2019-11-20T06:49:22Z</time>
      </trkpt>
      <trkpt lat="59.329346" lon="18.073374">
        <ele>10</ele>
        <time>2019-11-20T06:49:23Z</time>
      </trkpt>
      <trkpt lat="59.329373" lon="18.073383">
        <ele>10</ele>
        <time>2019-11-20T06:49:24Z</time>
      </trkpt>
      <trkpt lat="59.3294" lon="18.07339">
        <ele>10</ele>
        <time>2019-11-20T06:49:25Z</time>
      </trkpt>
      <trkpt lat="59.329428" lon="18.073396">
        <ele>10</ele>
        <time>2019-11-20T06:49:26Z</time>
      </trkpt>
      <trkpt lat="59.329456" lon="18.073405">
        <ele>10</ele>
        <time>2019-11-20T06:49:27Z</time>
      </trkpt>
      <trkpt lat="59.329483" lon="18.073424">
        <ele>10</ele>
        <time>2019-11-20T06:49:28Z</time>
      </trkpt>
      <trkpt lat="59.329506" lon="18.073451">
        <ele>10</ele>
        <time>2019-11-20T06:49:29Z</time>
      </trkpt>
      <trkpt lat="59.329526" lon="18.07348">
        <ele>10</ele>
        <time>2019-11-20T06:49:30Z</time>
      </trkpt>
      <trkpt lat="59.329545" lon="18.073509">
        <ele>10</ele>
        <time>2019-11-20T06:49:32Z</time>
      </trkpt>
      <trkpt lat="59.329562" lon="18.073538">
        <ele>10</ele>
        <time>2019-11-20T06:49:32Z</time>
      </trkpt>
      <trkpt lat="59.329583" lon="18.073561">
        <ele>10</ele>
        <time>2019-11-20T06:49:33Z</time>
      </trkpt>
      <trkpt lat="59.329606" lon="18.073577">
        <ele>10</ele>
        <time>2019-11-20T06:49:34Z</time>
      </trkpt>
      <trkpt lat="59.329629" lon="18.073587">
        <ele>10</ele>
        <time>2019-11-20T06:49:35Z</time>
      </trkpt>
      <trkpt lat="59.329649" lon="18.073586">
        <ele>10</ele>
        <time>2019-11-20T06:49:41Z</time>
      </trkpt>
      <trkpt lat="59.32969" lon="18.073586">
        <ele>10</ele>
        <time>2019-11-20T06:49:43Z</time>
      </trkpt>
      <trkpt lat="59.329716" lon="18.07358">
        <ele>10</ele>
        <time>2019-11-20T06:49:44Z</time>
      </trkpt>
      <trkpt lat="59.329746" lon="18.07357">
        <ele>10</ele>
        <time>2019-11-20T06:49:45Z</time>
      </trkpt>
      <trkpt lat="59.329774" lon="18.073558">
        <ele>10</ele>
        <time>2019-11-20T06:49:46Z</time>
      </trkpt>
      <trkpt lat="59.3298" lon="18.073542">
        <ele>10</ele>
        <time>2019-11-20T06:49:47Z</time>
      </trkpt>
      <trkpt lat="59.329827" lon="18.073533">
        <ele>10</ele>
        <time>2019-11-20T06:49:48Z</time>
      </trkpt>
      <trkpt lat="59.329855" lon="18.073524">
        <ele>10</ele>
        <time>2019-11-20T06:49:49Z</time>
      </trkpt>
      <trkpt lat="59.329883" lon="18.073507">
        <ele>10</ele>
        <time>2019-11-20T06:49:50Z</time>
      </trkpt>
      <trkpt lat="59.32991" lon="18.073491">
        <ele>10</ele>
        <time>2019-11-20T06:49:51Z</time>
      </trkpt>
      <trkpt lat="59.329937" lon="18.073477">
        <ele>10</ele>
        <time>2019-11-20T06:49:52Z</time>
      </trkpt>
      <trkpt lat="59.329964" lon="18.073464">
        <ele>10</ele>
        <time>2019-11-20T06:49:53Z</time>
      </trkpt>
      <trkpt lat="59.32999" lon="18.073452">
        <ele>10</ele>
        <time>2019-11-20T06:49:54Z</time>
      </trkpt>
      <trkpt lat="59.330018" lon="18.073435">
        <ele>10</ele>
        <time>2019-11-20T06:49:55Z</time>
      </trkpt>
      <trkpt lat="59.330045" lon="18.073417">
        <ele>10</ele>
        <time>2019-11-20T06:49:56Z</time>
      </trkpt>
      <trkpt lat="59.330072" lon="18.073401">
        <ele>10</ele>
        <time>2019-11-20T06:49:57Z</time>
      </trkpt>
      <trkpt lat="59.330097" lon="18.073384">
        <ele>10</ele>
        <time>2019-11-20T06:49:58Z</time>
      </trkpt>
      <trkpt lat="59.330123" lon="18.073368">
        <ele>10</ele>
        <time>2019-11-20T06:49:59Z</time>
      </trkpt>
      <trkpt lat="59.330149" lon="18.073351">
        <ele>10</ele>
        <time>2019-11-20T06:50:01Z</time>
      </trkpt>
      <trkpt lat="59.330176" lon="18.073337">
        <ele>9</ele>
        <time>2019-11-20T06:50:01Z</time>
      </trkpt>
      <trkpt lat="59.330203" lon="18.073324">
        <ele>9</ele>
        <time>2019-11-20T06:50:02Z</time>
      </trkpt>
      <trkpt lat="59.330231" lon="18.073305">
        <ele>9</ele>
        <time>2019-11-20T06:50:03Z</time>
      </trkpt>
      <trkpt lat="59.330259" lon="18.07329">
        <ele>9</ele>
        <time>2019-11-20T06:50:04Z</time>
      </trkpt>
      <trkpt lat="59.330286" lon="18.073273">
        <ele>9</ele>
        <time>2019-11-20T06:50:05Z</time>
      </trkpt>
      <trkpt lat="59.330311" lon="18.073258">
        <ele>9</ele>
        <time>2019-11-20T06:50:06Z</time>
      </trkpt>
      <trkpt lat="59.330338" lon="18.073244">
        <ele>9</ele>
        <time>2019-11-20T06:50:07Z</time>
      </trkpt>
      <trkpt lat="59.330364" lon="18.073229">
        <ele>9</ele>
        <time>2019-11-20T06:50:08Z</time>
      </trkpt>
      <trkpt lat="59.330389" lon="18.073211">
        <ele>9</ele>
        <time>2019-11-20T06:50:09Z</time>
      </trkpt>
      <trkpt lat="59.330415" lon="18.073194">
        <ele>9</ele>
        <time>2019-11-20T06:50:10Z</time>
      </trkpt>
      <trkpt lat="59.33044" lon="18.073175">
        <ele>9</ele>
        <time>2019-11-20T06:50:11Z</time>
      </trkpt>
      <trkpt lat="59.330464" lon="18.073157">
        <ele>10</ele>
        <time>2019-11-20T06:50:12Z</time>
      </trkpt>
      <trkpt lat="59.33049" lon="18.07314">
        <ele>10</ele>
        <time>2019-11-20T06:50:13Z</time>
      </trkpt>
      <trkpt lat="59.330516" lon="18.073124">
        <ele>10</ele>
        <time>2019-11-20T06:50:15Z</time>
      </trkpt>
      <trkpt lat="59.330544" lon="18.073127">
        <ele>10</ele>
        <time>2019-11-20T06:50:15Z</time>
      </trkpt>
      <trkpt lat="59.330569" lon="18.073151">
        <ele>9</ele>
        <time>2019-11-20T06:50:16Z</time>
      </trkpt>
      <trkpt lat="59.330587" lon="18.073189">
        <ele>9</ele>
        <time>2019-11-20T06:50:17Z</time>
      </trkpt>
      <trkpt lat="59.3306" lon="18.073236">
        <ele>9</ele>
        <time>2019-11-20T06:50:18Z</time>
      </trkpt>
      <trkpt lat="59.330607" lon="18.073301">
        <ele>10</ele>
        <time>2019-11-20T06:50:20Z</time>
      </trkpt>
      <trkpt lat="59.330617" lon="18.073337">
        <ele>10</ele>
        <time>2019-11-20T06:50:21Z</time>
      </trkpt>
      <trkpt lat="59.330632" lon="18.073379">
        <ele>10</ele>
        <time>2019-11-20T06:50:22Z</time>
      </trkpt>
      <trkpt lat="59.330656" lon="18.073423">
        <ele>10</ele>
        <time>2019-11-20T06:50:23Z</time>
      </trkpt>
      <trkpt lat="59.330738" lon="18.073559">
        <ele>9</ele>
        <time>2019-11-20T06:50:26Z</time>
      </trkpt>
      <trkpt lat="59.330778" lon="18.073642">
        <ele>9</ele>
        <time>2019-11-20T06:50:28Z</time>
      </trkpt>
      <trkpt lat="59.330812" lon="18.073729">
        <ele>10</ele>
        <time>2019-11-20T06:50:30Z</time>
      </trkpt>
      <trkpt lat="59.330832" lon="18.073778">
        <ele>10</ele>
        <time>2019-11-20T06:50:31Z</time>
      </trkpt>
      <trkpt lat="59.330854" lon="18.073833">
        <ele>10</ele>
        <time>2019-11-20T06:50:32Z</time>
      </trkpt>
      <trkpt lat="59.330875" lon="18.073876">
        <ele>10</ele>
        <time>2019-11-20T06:50:33Z</time>
      </trkpt>
      <trkpt lat="59.330896" lon="18.07392">
        <ele>10</ele>
        <time>2019-11-20T06:50:34Z</time>
      </trkpt>
      <trkpt lat="59.330917" lon="18.073963">
        <ele>9</ele>
        <time>2019-11-20T06:50:35Z</time>
      </trkpt>
      <trkpt lat="59.330936" lon="18.074004">
        <ele>9</ele>
        <time>2019-11-20T06:50:36Z</time>
      </trkpt>
      <trkpt lat="59.330953" lon="18.074043">
        <ele>10</ele>
        <time>2019-11-20T06:50:37Z</time>
      </trkpt>
      <trkpt lat="59.330969" lon="18.074082">
        <ele>10</ele>
        <time>2019-11-20T06:50:38Z</time>
      </trkpt>
      <trkpt lat="59.330979" lon="18.074122">
        <ele>10</ele>
        <time>2019-11-20T06:50:39Z</time>
      </trkpt>
      <trkpt lat="59.33099" lon="18.074157">
        <ele>10</ele>
        <time>2019-11-20T06:50:40Z</time>
      </trkpt>
      <trkpt lat="59.331006" lon="18.074192">
        <ele>10</ele>
        <time>2019-11-20T06:50:41Z</time>
      </trkpt>
      <trkpt lat="59.331022" lon="18.074222">
        <ele>10</ele>
        <time>2019-11-20T06:50:42Z</time>
      </trkpt>
      <trkpt lat="59.331032" lon="18.074255">
        <ele>10</ele>
        <time>2019-11-20T06:50:43Z</time>
      </trkpt>
      <trkpt lat="59.331038" lon="18.074291">
        <ele>10</ele>
        <time>2019-11-20T06:50:44Z</time>
      </trkpt>
      <trkpt lat="59.33104" lon="18.074333">
        <ele>10</ele>
        <time>2019-11-20T06:50:45Z</time>
      </trkpt>
      <trkpt lat="59.331042" lon="18.074376">
        <ele>11</ele>
        <time>2019-11-20T06:50:46Z</time>
      </trkpt>
      <trkpt lat="59.331047" lon="18.074428">
        <ele>11</ele>
        <time>2019-11-20T06:50:48Z</time>
      </trkpt>
      <trkpt lat="59.331072" lon="18.074483">
        <ele>11</ele>
        <time>2019-11-20T06:50:50Z</time>
      </trkpt>
      <trkpt lat="59.331095" lon="18.074512">
        <ele>11</ele>
        <time>2019-11-20T06:50:51Z</time>
      </trkpt>
      <trkpt lat="59.331177" lon="18.074644">
        <ele>12</ele>
        <time>2019-11-20T06:50:56Z</time>
      </trkpt>
      <trkpt lat="59.331269" lon="18.074729">
        <ele>12</ele>
        <time>2019-11-20T06:51:00Z</time>
      </trkpt>
      <trkpt lat="59.331361" lon="18.074744">
        <ele>12</ele>
        <time>2019-11-20T06:51:04Z</time>
      </trkpt>
      <trkpt lat="59.331478" lon="18.074776">
        <ele>12</ele>
        <time>2019-11-20T06:51:08Z</time>
      </trkpt>
      <trkpt lat="59.331558" lon="18.074878">
        <ele>11</ele>
        <time>2019-11-20T06:51:11Z</time>
      </trkpt>
      <trkpt lat="59.331639" lon="18.074979">
        <ele>11</ele>
        <time>2019-11-20T06:51:13Z</time>
      </trkpt>
      <trkpt lat="59.331732" lon="18.075076">
        <ele>10</ele>
        <time>2019-11-20T06:51:16Z</time>
      </trkpt>
      <trkpt lat="59.331847" lon="18.075073">
        <ele>10</ele>
        <time>2019-11-20T06:51:18Z</time>
      </trkpt>
      <trkpt lat="59.331956" lon="18.075164">
        <ele>9</ele>
        <time>2019-11-20T06:51:21Z</time>
      </trkpt>
      <trkpt lat="59.332012" lon="18.075316">
        <ele>9</ele>
        <time>2019-11-20T06:51:24Z</time>
      </trkpt>
      <trkpt lat="59.332029" lon="18.075368">
        <ele>9</ele>
        <time>2019-11-20T06:51:25Z</time>
      </trkpt>
      <trkpt lat="59.332048" lon="18.075419">
        <ele>10</ele>
        <time>2019-11-20T06:51:26Z</time>
      </trkpt>
      <trkpt lat="59.332063" lon="18.075458">
        <ele>10</ele>
        <time>2019-11-20T06:51:27Z</time>
      </trkpt>
      <trkpt lat="59.332083" lon="18.075499">
        <ele>10</ele>
        <time>2019-11-20T06:51:28Z</time>
      </trkpt>
      <trkpt lat="59.332103" lon="18.075541">
        <ele>10</ele>
        <time>2019-11-20T06:51:29Z</time>
      </trkpt>
      <trkpt lat="59.33212" lon="18.075591">
        <ele>10</ele>
        <time>2019-11-20T06:51:30Z</time>
      </trkpt>
      <trkpt lat="59.332135" lon="18.075639">
        <ele>10</ele>
        <time>2019-11-20T06:51:31Z</time>
      </trkpt>
      <trkpt lat="59.332151" lon="18.075686">
        <ele>10</ele>
        <time>2019-11-20T06:51:32Z</time>
      </trkpt>
      <trkpt lat="59.332165" lon="18.075726">
        <ele>10</ele>
        <time>2019-11-20T06:51:33Z</time>
      </trkpt>
      <trkpt lat="59.332176" lon="18.075764">
        <ele>11</ele>
        <time>2019-11-20T06:51:34Z</time>
      </trkpt>
      <trkpt lat="59.332192" lon="18.075807">
        <ele>11</ele>
        <time>2019-11-20T06:51:35Z</time>
      </trkpt>
      <trkpt lat="59.332205" lon="18.075853">
        <ele>11</ele>
        <time>2019-11-20T06:51:36Z</time>
      </trkpt>
      <trkpt lat="59.332216" lon="18.075899">
        <ele>11</ele>
        <time>2019-11-20T06:51:37Z</time>
      </trkpt>
      <trkpt lat="59.332232" lon="18.075945">
        <ele>11</ele>
        <time>2019-11-20T06:51:38Z</time>
      </trkpt>
      <trkpt lat="59.33225" lon="18.075991">
        <ele>11</ele>
        <time>2019-11-20T06:51:39Z</time>
      </trkpt>
      <trkpt lat="59.332267" lon="18.076042">
        <ele>11</ele>
        <time>2019-11-20T06:51:40Z</time>
      </trkpt>
      <trkpt lat="59.332282" lon="18.076096">
        <ele>11</ele>
        <time>2019-11-20T06:51:41Z</time>
      </trkpt>
      <trkpt lat="59.332298" lon="18.076145">
        <ele>11</ele>
        <time>2019-11-20T06:51:42Z</time>
      </trkpt>
      <trkpt lat="59.332316" lon="18.076194">
        <ele>11</ele>
        <time>2019-11-20T06:51:43Z</time>
      </trkpt>
      <trkpt lat="59.332334" lon="18.076238">
        <ele>11</ele>
        <time>2019-11-20T06:51:44Z</time>
      </trkpt>
      <trkpt lat="59.332356" lon="18.076284">
        <ele>12</ele>
        <time>2019-11-20T06:51:45Z</time>
      </trkpt>
      <trkpt lat="59.332376" lon="18.076325">
        <ele>12</ele>
        <time>2019-11-20T06:51:46Z</time>
      </trkpt>
      <trkpt lat="59.332396" lon="18.076369">
        <ele>12</ele>
        <time>2019-11-20T06:51:47Z</time>
      </trkpt>
      <trkpt lat="59.332417" lon="18.076412">
        <ele>12</ele>
        <time>2019-11-20T06:51:48Z</time>
      </trkpt>
      <trkpt lat="59.332433" lon="18.076451">
        <ele>12</ele>
        <time>2019-11-20T06:51:49Z</time>
      </trkpt>
      <trkpt lat="59.332446" lon="18.07649">
        <ele>12</ele>
        <time>2019-11-20T06:51:50Z</time>
      </trkpt>
      <trkpt lat="59.33246" lon="18.076536">
        <ele>12</ele>
        <time>2019-11-20T06:51:51Z</time>
      </trkpt>
      <trkpt lat="59.332475" lon="18.076587">
        <ele>12</ele>
        <time>2019-11-20T06:51:52Z</time>
      </trkpt>
      <trkpt lat="59.33249" lon="18.076632">
        <ele>12</ele>
        <time>2019-11-20T06:51:53Z</time>
      </trkpt>
      <trkpt lat="59.332493" lon="18.076669">
        <ele>12</ele>
        <time>2019-11-20T06:51:54Z</time>
      </trkpt>
      <trkpt lat="59.332501" lon="18.076719">
        <ele>12</ele>
        <time>2019-11-20T06:51:56Z</time>
      </trkpt>
      <trkpt lat="59.332515" lon="18.076748">
        <ele>12</ele>
        <time>2019-11-20T06:51:59Z</time>
      </trkpt>
      <trkpt lat="59.332531" lon="18.076767">
        <ele>15</ele>
        <time>2019-11-20T06:52:01Z</time>
      </trkpt>
      <trkpt lat="59.332554" lon="18.076784">
        <ele>17</ele>
        <time>2019-11-20T06:52:04Z</time>
      </trkpt>
      <trkpt lat="59.332573" lon="18.076815">
        <ele>17</ele>
        <time>2019-11-20T06:52:07Z</time>
      </trkpt>
      <trkpt lat="59.332598" lon="18.076866">
        <ele>17</ele>
        <time>2019-11-20T06:52:09Z</time>
      </trkpt>
      <trkpt lat="59.332604" lon="18.076901">
        <ele>17</ele>
        <time>2019-11-20T06:52:10Z</time>
      </trkpt>
      <trkpt lat="59.33262" lon="18.076962">
        <ele>17</ele>
        <time>2019-11-20T06:52:12Z</time>
      </trkpt>
      <trkpt lat="59.332638" lon="18.077024">
        <ele>18</ele>
        <time>2019-11-20T06:52:14Z</time>
      </trkpt>
      <trkpt lat="59.332649" lon="18.077063">
        <ele>17</ele>
        <time>2019-11-20T06:52:15Z</time>
      </trkpt>
      <trkpt lat="59.332675" lon="18.077084">
        <ele>17</ele>
        <time>2019-11-20T06:52:16Z</time>
      </trkpt>
      <trkpt lat="59.33271" lon="18.077103">
        <ele>17</ele>
        <time>2019-11-20T06:52:17Z</time>
      </trkpt>
      <trkpt lat="59.332744" lon="18.077117">
        <ele>17</ele>
        <time>2019-11-20T06:52:18Z</time>
      </trkpt>
      <trkpt lat="59.332773" lon="18.077133">
        <ele>17</ele>
        <time>2019-11-20T06:52:19Z</time>
      </trkpt>
      <trkpt lat="59.332801" lon="18.077153">
        <ele>17</ele>
        <time>2019-11-20T06:52:20Z</time>
      </trkpt>
      <trkpt lat="59.332827" lon="18.077161">
        <ele>17</ele>
        <time>2019-11-20T06:52:21Z</time>
      </trkpt>
      <trkpt lat="59.332854" lon="18.07715">
        <ele>16</ele>
        <time>2019-11-20T06:52:22Z</time>
      </trkpt>
      <trkpt lat="59.332882" lon="18.077148">
        <ele>16</ele>
        <time>2019-11-20T06:52:23Z</time>
      </trkpt>
      <trkpt lat="59.33291" lon="18.077165">
        <ele>16</ele>
        <time>2019-11-20T06:52:24Z</time>
      </trkpt>
      <trkpt lat="59.332931" lon="18.077187">
        <ele>16</ele>
        <time>2019-11-20T06:52:25Z</time>
      </trkpt>
      <trkpt lat="59.332947" lon="18.077215">
        <ele>16</ele>
        <time>2019-11-20T06:52:26Z</time>
      </trkpt>
      <trkpt lat="59.332968" lon="18.07725">
        <ele>16</ele>
        <time>2019-11-20T06:52:27Z</time>
      </trkpt>
      <trkpt lat="59.332994" lon="18.077278">
        <ele>16</ele>
        <time>2019-11-20T06:52:28Z</time>
      </trkpt>
      <trkpt lat="59.333023" lon="18.077307">
        <ele>15</ele>
        <time>2019-11-20T06:52:29Z</time>
      </trkpt>
      <trkpt lat="59.33308" lon="18.077445">
        <ele>15</ele>
        <time>2019-11-20T06:52:33Z</time>
      </trkpt>
      <trkpt lat="59.333149" lon="18.077635">
        <ele>16</ele>
        <time>2019-11-20T06:52:38Z</time>
      </trkpt>
      <trkpt lat="59.333207" lon="18.077793">
        <ele>16</ele>
        <time>2019-11-20T06:52:41Z</time>
      </trkpt>
      <trkpt lat="59.333321" lon="18.077864">
        <ele>17</ele>
        <time>2019-11-20T06:52:45Z</time>
      </trkpt>
      <trkpt lat="59.33339" lon="18.077738">
        <ele>17</ele>
        <time>2019-11-20T06:52:47Z</time>
      </trkpt>
      <trkpt lat="59.333478" lon="18.077841">
        <ele>17</ele>
        <time>2019-11-20T06:52:51Z</time>
      </trkpt>
      <trkpt lat="59.33358" lon="18.077958">
        <ele>17</ele>
        <time>2019-11-20T06:52:55Z</time>
      </trkpt>
      <trkpt lat="59.33368" lon="18.078067">
        <ele>17</ele>
        <time>2019-11-20T06:52:59Z</time>
      </trkpt>
      <trkpt lat="59.333749" lon="18.078186">
        <ele>17</ele>
        <time>2019-11-20T06:53:03Z</time>
      </trkpt>
      <trkpt lat="59.333847" lon="18.078247">
        <ele>18</ele>
        <time>2019-11-20T06:53:06Z</time>
      </trkpt>
      <trkpt lat="59.333945" lon="18.07834">
        <ele>17</ele>
        <time>2019-11-20T06:53:11Z</time>
      </trkpt>
      <trkpt lat="59.334041" lon="18.078278">
        <ele>17</ele>
        <time>2019-11-20T06:53:14Z</time>
      </trkpt>
      <trkpt lat="59.334112" lon="18.078345">
        <ele>17</ele>
        <time>2019-11-20T06:53:17Z</time>
      </trkpt>
      <trkpt lat="59.334137" lon="18.078376">
        <ele>17</ele>
        <time>2019-11-20T06:53:18Z</time>
      </trkpt>
      <trkpt lat="59.334153" lon="18.078413">
        <ele>17</ele>
        <time>2019-11-20T06:53:19Z</time>
      </trkpt>
      <trkpt lat="59.334167" lon="18.078446">
        <ele>17</ele>
        <time>2019-11-20T06:53:20Z</time>
      </trkpt>
      <trkpt lat="59.334184" lon="18.078476">
        <ele>17</ele>
        <time>2019-11-20T06:53:21Z</time>
      </trkpt>
      <trkpt lat="59.334282" lon="18.078566">
        <ele>17</ele>
        <time>2019-11-20T06:53:25Z</time>
      </trkpt>
      <trkpt lat="59.334383" lon="18.078615">
        <ele>17</ele>
        <time>2019-11-20T06:53:28Z</time>
      </trkpt>
      <trkpt lat="59.334472" lon="18.078664">
        <ele>18</ele>
        <time>2019-11-20T06:53:31Z</time>
      </trkpt>
      <trkpt lat="59.334559" lon="18.078719">
        <ele>18</ele>
        <time>2019-11-20T06:53:34Z</time>
      </trkpt>
      <trkpt lat="59.334649" lon="18.078788">
        <ele>19</ele>
        <time>2019-11-20T06:53:38Z</time>
      </trkpt>
      <trkpt lat="59.334768" lon="18.078874">
        <ele>20</ele>
        <time>2019-11-20T06:53:42Z</time>
      </trkpt>
      <trkpt lat="59.334865" lon="18.078952">
        <ele>21</ele>
        <time>2019-11-20T06:53:45Z</time>
      </trkpt>
      <trkpt lat="59.334952" lon="18.079044">
        <ele>23</ele>
        <time>2019-11-20T06:53:49Z</time>
      </trkpt>
      <trkpt lat="59.335035" lon="18.079167">
        <ele>24</ele>
        <time>2019-11-20T06:53:53Z</time>
      </trkpt>
      <trkpt lat="59.33514" lon="18.079241">
        <ele>26</ele>
        <time>2019-11-20T06:53:57Z</time>
      </trkpt>
      <trkpt lat="59.335231" lon="18.079365">
        <ele>27</ele>
        <time>2019-11-20T06:54:01Z</time>
      </trkpt>
      <trkpt lat="59.33532" lon="18.079428">
        <ele>27</ele>
        <time>2019-11-20T06:54:04Z</time>
      </trkpt>
      <trkpt lat="59.335452" lon="18.079441">
        <ele>27</ele>
        <time>2019-11-20T06:54:08Z</time>
      </trkpt>
      <trkpt lat="59.335558" lon="18.079462">
        <ele>28</ele>
        <time>2019-11-20T06:54:11Z</time>
      </trkpt>
      <trkpt lat="59.335583" lon="18.079477">
        <ele>28</ele>
        <time>2019-11-20T06:54:12Z</time>
      </trkpt>
      <trkpt lat="59.335607" lon="18.079501">
        <ele>28</ele>
        <time>2019-11-20T06:54:13Z</time>
      </trkpt>
      <trkpt lat="59.335632" lon="18.079522">
        <ele>28</ele>
        <time>2019-11-20T06:54:14Z</time>
      </trkpt>
      <trkpt lat="59.335652" lon="18.079542">
        <ele>28</ele>
        <time>2019-11-20T06:54:15Z</time>
      </trkpt>
      <trkpt lat="59.335668" lon="18.079564">
        <ele>28</ele>
        <time>2019-11-20T06:54:16Z</time>
      </trkpt>
      <trkpt lat="59.335683" lon="18.079591">
        <ele>29</ele>
        <time>2019-11-20T06:54:17Z</time>
      </trkpt>
      <trkpt lat="59.335704" lon="18.079619">
        <ele>29</ele>
        <time>2019-11-20T06:54:18Z</time>
      </trkpt>
      <trkpt lat="59.335728" lon="18.079647">
        <ele>29</ele>
        <time>2019-11-20T06:54:19Z</time>
      </trkpt>
      <trkpt lat="59.335752" lon="18.079672">
        <ele>29</ele>
        <time>2019-11-20T06:54:20Z</time>
      </trkpt>
      <trkpt lat="59.335777" lon="18.079697">
        <ele>29</ele>
        <time>2019-11-20T06:54:21Z</time>
      </trkpt>
      <trkpt lat="59.335801" lon="18.079716">
        <ele>29</ele>
        <time>2019-11-20T06:54:22Z</time>
      </trkpt>
      <trkpt lat="59.335828" lon="18.079734">
        <ele>29</ele>
        <time>2019-11-20T06:54:23Z</time>
      </trkpt>
      <trkpt lat="59.335852" lon="18.079758">
        <ele>29</ele>
        <time>2019-11-20T06:54:24Z</time>
      </trkpt>
      <trkpt lat="59.335877" lon="18.079778">
        <ele>29</ele>
        <time>2019-11-20T06:54:25Z</time>
      </trkpt>
      <trkpt lat="59.335902" lon="18.0798">
        <ele>29</ele>
        <time>2019-11-20T06:54:26Z</time>
      </trkpt>
      <trkpt lat="59.335927" lon="18.079807">
        <ele>30</ele>
        <time>2019-11-20T06:54:27Z</time>
      </trkpt>
      <trkpt lat="59.33595" lon="18.079813">
        <ele>30</ele>
        <time>2019-11-20T06:54:28Z</time>
      </trkpt>
      <trkpt lat="59.335973" lon="18.079817">
        <ele>30</ele>
        <time>2019-11-20T06:54:29Z</time>
      </trkpt>
      <trkpt lat="59.335991" lon="18.079831">
        <ele>30</ele>
        <time>2019-11-20T06:54:30Z</time>
      </trkpt>
      <trkpt lat="59.336013" lon="18.079847">
        <ele>30</ele>
        <time>2019-11-20T06:54:31Z</time>
      </trkpt>
      <trkpt lat="59.336032" lon="18.079863">
        <ele>30</ele>
        <time>2019-11-20T06:54:32Z</time>
      </trkpt>
      <trkpt lat="59.336058" lon="18.07988">
        <ele>30</ele>
        <time>2019-11-20T06:54:33Z</time>
      </trkpt>
      <trkpt lat="59.336083" lon="18.079899">
        <ele>30</ele>
        <time>2019-11-20T06:54:34Z</time>
      </trkpt>
      <trkpt lat="59.336106" lon="18.079919">
        <ele>30</ele>
        <time>2019-11-20T06:54:35Z</time>
      </trkpt>
      <trkpt lat="59.336199" lon="18.08001">
        <ele>31</ele>
        <time>2019-11-20T06:54:39Z</time>
      </trkpt>
      <trkpt lat="59.336288" lon="18.080092">
        <ele>32</ele>
        <time>2019-11-20T06:54:43Z</time>
      </trkpt>
      <trkpt lat="59.336382" lon="18.080189">
        <ele>33</ele>
        <time>2019-11-20T06:54:47Z</time>
      </trkpt>
      <trkpt lat="59.336483" lon="18.080278">
        <ele>34</ele>
        <time>2019-11-20T06:54:51Z</time>
      </trkpt>
      <trkpt lat="59.336578" lon="18.080402">
        <ele>35</ele>
        <time>2019-11-20T06:54:55Z</time>
      </trkpt>
      <trkpt lat="59.33666" lon="18.080477">
        <ele>36</ele>
        <time>2019-11-20T06:55:00Z</time>
      </trkpt>
      <trkpt lat="59.336754" lon="18.080559">
        <ele>37</ele>
        <time>2019-11-20T06:55:03Z</time>
      </trkpt>
      <trkpt lat="59.336876" lon="18.080574">
        <ele>36</ele>
        <time>2019-11-20T06:55:06Z</time>
      </trkpt>
      <trkpt lat="59.336966" lon="18.080602">
        <ele>37</ele>
        <time>2019-11-20T06:55:08Z</time>
      </trkpt>
      <trkpt lat="59.337055" lon="18.080729">
        <ele>39</ele>
        <time>2019-11-20T06:55:11Z</time>
      </trkpt>
      <trkpt lat="59.337094" lon="18.080758">
        <ele>39</ele>
        <time>2019-11-20T06:55:13Z</time>
      </trkpt>
      <trkpt lat="59.337117" lon="18.080777">
        <ele>39</ele>
        <time>2019-11-20T06:55:14Z</time>
      </trkpt>
      <trkpt lat="59.337138" lon="18.080795">
        <ele>39</ele>
        <time>2019-11-20T06:55:15Z</time>
      </trkpt>
      <trkpt lat="59.337161" lon="18.080813">
        <ele>39</ele>
        <time>2019-11-20T06:55:16Z</time>
      </trkpt>
      <trkpt lat="59.337184" lon="18.080843">
        <ele>39</ele>
        <time>2019-11-20T06:55:17Z</time>
      </trkpt>
      <trkpt lat="59.337208" lon="18.080871">
        <ele>39</ele>
        <time>2019-11-20T06:55:18Z</time>
      </trkpt>
      <trkpt lat="59.337228" lon="18.080897">
        <ele>39</ele>
        <time>2019-11-20T06:55:19Z</time>
      </trkpt>
      <trkpt lat="59.337248" lon="18.080923">
        <ele>39</ele>
        <time>2019-11-20T06:55:20Z</time>
      </trkpt>
      <trkpt lat="59.337268" lon="18.080943">
        <ele>40</ele>
        <time>2019-11-20T06:55:21Z</time>
      </trkpt>
      <trkpt lat="59.337294" lon="18.080963">
        <ele>40</ele>
        <time>2019-11-20T06:55:22Z</time>
      </trkpt>
      <trkpt lat="59.337319" lon="18.08099">
        <ele>40</ele>
        <time>2019-11-20T06:55:23Z</time>
      </trkpt>
      <trkpt lat="59.337344" lon="18.081014">
        <ele>40</ele>
        <time>2019-11-20T06:55:24Z</time>
      </trkpt>
      <trkpt lat="59.337371" lon="18.08104">
        <ele>40</ele>
        <time>2019-11-20T06:55:25Z</time>
      </trkpt>
      <trkpt lat="59.337399" lon="18.081068">
        <ele>40</ele>
        <time>2019-11-20T06:55:26Z</time>
      </trkpt>
      <trkpt lat="59.337425" lon="18.081099">
        <ele>41</ele>
        <time>2019-11-20T06:55:27Z</time>
      </trkpt>
      <trkpt lat="59.33745" lon="18.081135">
        <ele>41</ele>
        <time>2019-11-20T06:55:28Z</time>
      </trkpt>
      <trkpt lat="59.337479" lon="18.081166">
        <ele>41</ele>
        <time>2019-11-20T06:55:29Z</time>
      </trkpt>
      <trkpt lat="59.337586" lon="18.081266">
        <ele>42</ele>
        <time>2019-11-20T06:55:33Z</time>
      </trkpt>
      <trkpt lat="59.337676" lon="18.081331">
        <ele>42</ele>
        <time>2019-11-20T06:55:36Z</time>
      </trkpt>
      <trkpt lat="59.337789" lon="18.081374">
        <ele>43</ele>
        <time>2019-11-20T06:55:39Z</time>
      </trkpt>
      <trkpt lat="59.33788" lon="18.081428">
        <ele>43</ele>
        <time>2019-11-20T06:55:42Z</time>
      </trkpt>
      <trkpt lat="59.337966" lon="18.081482">
        <ele>43</ele>
        <time>2019-11-20T06:55:45Z</time>
      </trkpt>
      <trkpt lat="59.338095" lon="18.0815">
        <ele>43</ele>
        <time>2019-11-20T06:55:48Z</time>
      </trkpt>
      <trkpt lat="59.338195" lon="18.081624">
        <ele>44</ele>
        <time>2019-11-20T06:55:51Z</time>
      </trkpt>
      <trkpt lat="59.338215" lon="18.081691">
        <ele>45</ele>
        <time>2019-11-20T06:55:53Z</time>
      </trkpt>
      <trkpt lat="59.338247" lon="18.081716">
        <ele>45</ele>
        <time>2019-11-20T06:55:55Z</time>
      </trkpt>
      <trkpt lat="59.33827" lon="18.081729">
        <ele>45</ele>
        <time>2019-11-20T06:55:56Z</time>
      </trkpt>
      <trkpt lat="59.338287" lon="18.081743">
        <ele>45</ele>
        <time>2019-11-20T06:55:57Z</time>
      </trkpt>
      <trkpt lat="59.338308" lon="18.08176">
        <ele>45</ele>
        <time>2019-11-20T06:55:58Z</time>
      </trkpt>
      <trkpt lat="59.338328" lon="18.081781">
        <ele>45</ele>
        <time>2019-11-20T06:55:59Z</time>
      </trkpt>
      <trkpt lat="59.338354" lon="18.081827">
        <ele>45</ele>
        <time>2019-11-20T06:56:01Z</time>
      </trkpt>
      <trkpt lat="59.338373" lon="18.081853">
        <ele>45</ele>
        <time>2019-11-20T06:56:02Z</time>
      </trkpt>
      <trkpt lat="59.338464" lon="18.08195">
        <ele>47</ele>
        <time>2019-11-20T06:56:06Z</time>
      </trkpt>
      <trkpt lat="59.338568" lon="18.082052">
        <ele>48</ele>
        <time>2019-11-20T06:56:10Z</time>
      </trkpt>
      <trkpt lat="59.338657" lon="18.082155">
        <ele>49</ele>
        <time>2019-11-20T06:56:13Z</time>
      </trkpt>
      <trkpt lat="59.33876" lon="18.082217">
        <ele>50</ele>
        <time>2019-11-20T06:56:16Z</time>
      </trkpt>
      <trkpt lat="59.338858" lon="18.082252">
        <ele>50</ele>
        <time>2019-11-20T06:56:19Z</time>
      </trkpt>
      <trkpt lat="59.338995" lon="18.082255">
        <ele>50</ele>
        <time>2019-11-20T06:56:22Z</time>
      </trkpt>
      <trkpt lat="59.339114" lon="18.082319">
        <ele>51</ele>
        <time>2019-11-20T06:56:24Z</time>
      </trkpt>
      <trkpt lat="59.339209" lon="18.082426">
        <ele>52</ele>
        <time>2019-11-20T06:56:27Z</time>
      </trkpt>
      <trkpt lat="59.339234" lon="18.082456">
        <ele>53</ele>
        <time>2019-11-20T06:56:28Z</time>
      </trkpt>
      <trkpt lat="59.339259" lon="18.082477">
        <ele>54</ele>
        <time>2019-11-20T06:56:29Z</time>
      </trkpt>
      <trkpt lat="59.33928" lon="18.082501">
        <ele>54</ele>
        <time>2019-11-20T06:56:30Z</time>
      </trkpt>
      <trkpt lat="59.339297" lon="18.082525">
        <ele>54</ele>
        <time>2019-11-20T06:56:31Z</time>
      </trkpt>
      <trkpt lat="59.339311" lon="18.082586">
        <ele>54</ele>
        <time>2019-11-20T06:56:33Z</time>
      </trkpt>
      <trkpt lat="59.339309" lon="18.082631">
        <ele>54</ele>
        <time>2019-11-20T06:56:34Z</time>
      </trkpt>
      <trkpt lat="59.3393" lon="18.082661">
        <ele>54</ele>
        <time>2019-11-20T06:56:35Z</time>
      </trkpt>
      <trkpt lat="59.339287" lon="18.082691">
        <ele>54</ele>
        <time>2019-11-20T06:56:36Z</time>
      </trkpt>
      <trkpt lat="59.339265" lon="18.082722">
        <ele>54</ele>
        <time>2019-11-20T06:56:37Z</time>
      </trkpt>
      <trkpt lat="59.339241" lon="18.082764">
        <ele>52</ele>
        <time>2019-11-20T06:56:38Z</time>
      </trkpt>
      <trkpt lat="59.339219" lon="18.082815">
        <ele>52</ele>
        <time>2019-11-20T06:56:39Z</time>
      </trkpt>
      <trkpt lat="59.339196" lon="18.082875">
        <ele>52</ele>
        <time>2019-11-20T06:56:40Z</time>
      </trkpt>
      <trkpt lat="59.339175" lon="18.08294">
        <ele>50</ele>
        <time>2019-11-20T06:56:41Z</time>
      </trkpt>
      <trkpt lat="59.339138" lon="18.083143">
        <ele>49</ele>
        <time>2019-11-20T06:56:44Z</time>
      </trkpt>
      <trkpt lat="59.339115" lon="18.083321">
        <ele>48</ele>
        <time>2019-11-20T06:56:47Z</time>
      </trkpt>
      <trkpt lat="59.339103" lon="18.083515">
        <ele>46</ele>
        <time>2019-11-20T06:56:50Z</time>
      </trkpt>
      <trkpt lat="59.339164" lon="18.083697">
        <ele>46</ele>
        <time>2019-11-20T06:56:53Z</time>
      </trkpt>
      <trkpt lat="59.33924" lon="18.083849">
        <ele>46</ele>
        <time>2019-11-20T06:56:57Z</time>
      </trkpt>
      <trkpt lat="59.339317" lon="18.08396">
        <ele>45</ele>
        <time>2019-11-20T06:57:00Z</time>
      </trkpt>
      <trkpt lat="59.339426" lon="18.084065">
        <ele>46</ele>
        <time>2019-11-20T06:57:04Z</time>
      </trkpt>
      <trkpt lat="59.339542" lon="18.084102">
        <ele>46</ele>
        <time>2019-11-20T06:57:08Z</time>
      </trkpt>
      <trkpt lat="59.339641" lon="18.084146">
        <ele>46</ele>
        <time>2019-11-20T06:57:09Z</time>
      </trkpt>
      <trkpt lat="59.339743" lon="18.084187">
        <ele>47</ele>
        <time>2019-11-20T06:57:13Z</time>
      </trkpt>
      <trkpt lat="59.339831" lon="18.084255">
        <ele>47</ele>
        <time>2019-11-20T06:57:17Z</time>
      </trkpt>
      <trkpt lat="59.339945" lon="18.084361">
        <ele>48</ele>
        <time>2019-11-20T06:57:21Z</time>
      </trkpt>
      <trkpt lat="59.340042" lon="18.084449">
        <ele>48</ele>
        <time>2019-11-20T06:57:24Z</time>
      </trkpt>
      <trkpt lat="59.340136" lon="18.084537">
        <ele>48</ele>
        <time>2019-11-20T06:57:27Z</time>
      </trkpt>
      <trkpt lat="59.340226" lon="18.084612">
        <ele>48</ele>
        <time>2019-11-20T06:57:30Z</time>
      </trkpt>
      <trkpt lat="59.340309" lon="18.084683">
        <ele>49</ele>
        <time>2019-11-20T06:57:32Z</time>
      </trkpt>
      <trkpt lat="59.340378" lon="18.084846">
        <ele>50</ele>
        <time>2019-11-20T06:57:35Z</time>
      </trkpt>
      <trkpt lat="59.340384" lon="18.085053">
        <ele>0</ele>
        <time>2019-11-20T06:57:38Z</time>
      </trkpt>
    </trkseg>
  </trk>
</gpx>